
Distance (Route):
Temperature : -52.8°C
Humidity : 1.4%
Pressure : 99.8hPa| Receiver | Frames | First received | Last received |
|---|---|---|---|
| DL1XH-west | 204 | 2026-09-06 00:14:19 | 2026-09-06 01:02:13 |
| DL1XH1-15 | 134 | 2026-09-06 00:12:06 | 2026-09-06 01:01:26 |
| AA1-15 | 127 | 2026-09-06 00:32:00 | 2026-09-06 01:02:17 |
| DM0DOS-11 | 117 | 2026-09-06 00:33:37 | 2026-09-06 01:01:59 |
| DL1XH-15 | 51 | 2026-09-06 00:43:31 | 2026-09-06 01:02:31 |
| DJ2DS-15 | 18 | 2026-09-06 00:13:27 | 2026-09-06 01:05:46 |
| Receiver | Date | Latitude | Longitude | Direction | Speed | Altitude | Climb | Temperature | Humidity | Pressure | Voltage | Killtimer | Uptime | BKT | XDATA |
|---|---|---|---|---|---|---|---|---|---|---|---|---|---|---|---|
| DJ2DS-15 | 2026-09-06 01:05:46 | 58.16936 | 7.74309 | 120° | 58km/h | 16428m | -33.6m/s | -52.8°C | 1.4% | 99.8hPa | 2.4V | 00:00:00 | 00:00:00 | 00:00:00 | |
| DJ2DS-15 | 2026-09-06 01:04:34 | 58.17151 | 7.73034 | 99° | 69km/h | 17910m | -34.4m/s | -50.0°C | 1.2% | 79.3hPa | 2.4V | 00:00:00 | 00:00:00 | 00:00:00 | |
| DJ2DS-15 | 2026-09-06 01:02:46 | 58.17341 | 7.71101 | 151° | 18km/h | 22449m | -51.7m/s | -50.3°C | 1.1% | 39.6hPa | 2.4V | 00:00:00 | 00:00:00 | 00:00:00 | |
| DL1XH-15 | 2026-09-06 01:02:31 | 58.17398 | 7.70940 | 133° | 16km/h | 23391m | -52.9m/s | -48.7°C | 3.4% | 34.2hPa | 2.4V | 08:28:13 | 02:23:16 | 00:00:00 | |
| AA1-15 | 2026-09-06 01:02:17 | 58.17406 | 7.70893 | 82° | 20km/h | 23857m | -51.4m/s | -50°C | 0.7% | 31.8hPa | 2.4V | 08:28:41 | 02:23:07 | 00:00:00 | |
| DL1XH-west | 2026-09-06 01:02:13 | 58.17407 | 7.70847 | 96° | 29km/h | 24067m | -54.8m/s | -49.7°C | 0.7% | 30.8hPa | 2.4V | 18:12:15 | 02:23:03 | 00:00:00 | |
| AA1-15 | 2026-09-06 01:02:07 | 58.17415 | 7.70756 | 107° | 37km/h | 24399m | -56.2m/s | -49.6°C | 0.7% | 29.3hPa | 2.4V | 08:28:41 | 02:22:57 | 00:00:00 | |
| DL1XH-west | 2026-09-06 01:02:00 | 58.17443 | 7.70658 | 127° | 29km/h | 24795m | -59.9m/s | -48.2°C | 0.3% | 27.6hPa | 2.4V | 18:12:15 | 02:22:50 | 00:00:00 | |
| DM0DOS-11 | 2026-09-06 01:01:59 | 58.17454 | 7.70627 | 128° | 26km/h | 24973m | -59.9m/s | -48.2°C | 3.2% | 26.8hPa | 2.5V | 08:30:00 | 02:22:47 | 00:00:00 | |
| AA1-15 | 2026-09-06 01:01:57 | 58.17454 | 7.70627 | 129° | 26km/h | 24973m | -59.9m/s | -48.2°C | 0.4% | 26.8hPa | 2.5V | 08:29:32 | 02:22:47 | 00:00:00 | |
| AA1-15 | 2026-09-06 01:01:46 | 58.17483 | 7.70575 | 102° | 5km/h | 25641m | -63m/s | -49.3°C | 0.5% | 24.2hPa | 2.4V | 08:29:32 | 02:22:36 | 00:00:00 | |
| DM0DOS-11 | 2026-09-06 01:01:44 | 58.17488 | 7.70547 | 121° | 11km/h | 26085m | -64.3m/s | -49.7°C | 3.6% | 22.6hPa | 2.4V | 08:30:00 | 02:22:29 | 00:00:00 | |
| AA1-15 | 2026-09-06 01:01:34 | 58.17494 | 7.70530 | 119° | 9km/h | 26410m | -66.4m/s | -50.4°C | 0.8% | 21.5hPa | 2.4V | 08:29:32 | 02:22:24 | 00:00:00 | |
| DJ2DS-15 | 2026-09-06 01:01:33 | 58.17495 | 7.70526 | 110° | 9km/h | 26476m | -65.8m/s | -50.6°C | 1.2% | 21.3hPa | 2.4V | 00:00:00 | 00:00:00 | 00:00:00 | |
| DM0DOS-11 | 2026-09-06 01:01:29 | 58.17502 | 7.70487 | 105° | 11km/h | 26938m | -68.6m/s | -50.3°C | 4.1% | 19.8hPa | 2.4V | 08:30:00 | 02:22:16 | 00:00:00 | |
| DL1XH-west | 2026-09-06 01:01:28 | 58.17501 | 7.70498 | 105° | 13km/h | 26804m | -67.1m/s | -50.4°C | 1% | 20.2hPa | 2.4V | 18:12:15 | 02:22:18 | 00:00:00 | |
| DL1XH1-15 | 2026-09-06 01:01:26 | 58.17508 | 7.70455 | 116° | 22km/h | 27284m | -70.8m/s | -50.7°C | 4.4% | 18.8hPa | 2.4V | 08:30:00 | 02:22:11 | 00:00:00 | |
| AA1-15 | 2026-09-06 01:01:23 | 58.17504 | 7.70471 | 110° | 16km/h | 27144m | -71m/s | -50.6°C | 1.1% | 19.2hPa | 2.5V | 08:29:32 | 02:22:13 | 00:00:00 | |
| DM0DOS-11 | 2026-09-06 01:01:19 | 58.17539 | 7.70404 | 159° | 24km/h | 27776m | -73.1m/s | -48.6°C | 3.9% | 17.4hPa | 2.4V | 08:30:00 | 02:22:04 | 00:00:00 | |
| DL1XH-west | 2026-09-06 01:01:18 | 58.17518 | 7.70429 | 136° | 27km/h | 27496m | -70.3m/s | -50.5°C | 1.2% | 18.2hPa | 2.4V | 18:12:15 | 02:22:08 | 00:00:00 | |
| AA1-15 | 2026-09-06 01:01:13 | 58.17545 | 7.70400 | 166° | 26km/h | 27849m | -73.3m/s | -48.2°C | 0.8% | 17.2hPa | 2.4V | 08:29:32 | 02:22:03 | 00:00:00 | |
| DM0DOS-11 | 2026-09-06 01:01:09 | 58.17588 | 7.70399 | 189° | 15km/h | 28530m | -78m/s | -47.1°C | 3.6% | 15.5hPa | 2.4V | 08:30:00 | 02:21:54 | 00:00:00 | |
| AA1-15 | 2026-09-06 01:01:02 | 58.17594 | 7.70402 | 190° | 15km/h | 28684m | -78.8m/s | -46.8°C | 0.6% | 15.2hPa | 2.5V | 18:12:15 | 02:21:52 | 00:00:00 | |
| DM0DOS-11 | 2026-09-06 01:00:59 | 58.17604 | 7.70405 | 67° | 5km/h | 29301m | -76.8m/s | -44.9°C | 3.1% | 13.7hPa | 2.5V | 08:30:00 | 02:21:44 | 00:00:00 | |
| DL1XH-west | 2026-09-06 01:00:56 | 58.17605 | 7.70408 | 15° | 2km/h | 29148m | -77.4m/s | -45.2°C | 0.3% | 0hPa | 2.5V | 18:12:15 | 02:21:46 | 00:00:00 | |
| DL1XH-15 | 2026-09-06 01:00:50 | 58.17596 | 7.70379 | 70° | 18km/h | 29689m | -80.1m/s | -44.5°C | 3% | 12.9hPa | 2.5V | 08:30:00 | 02:21:39 | 00:00:00 | |
| DM0DOS-11 | 2026-09-06 01:00:49 | 58.17585 | 7.70323 | 71° | 22km/h | 30158m | -79.1m/s | -44.4°C | 3.1% | 12.1hPa | 2.4V | 08:30:00 | 02:21:33 | 00:00:00 | |
| DL1XH-west | 2026-09-06 01:00:44 | 58.17587 | 7.70333 | 75° | 22km/h | 30081m | -77.6m/s | -44.5°C | 0.3% | 0hPa | 2.4V | 18:12:15 | 02:21:34 | 00:00:00 | |
| DL1XH-15 | 2026-09-06 01:00:42 | 58.17576 | 7.70280 | 73° | 22km/h | 30474m | -80.8m/s | -43.7°C | 2.9% | 11.5hPa | 2.4V | 08:30:00 | 02:21:29 | 00:00:00 | |
| AA1-15 | 2026-09-06 01:00:37 | 58.17572 | 7.70259 | 70° | 26km/h | 30635m | -81.5m/s | -43.7°C | 0.2% | 11.2hPa | 2.4V | 18:12:15 | 02:21:27 | 00:00:00 | |
| DL1XH-15 | 2026-09-06 01:00:30 | 58.17562 | 7.70163 | 81° | 33km/h | 31269m | -76.8m/s | -43.6°C | 3.1% | 10.2hPa | 2.4V | 08:30:00 | 02:21:19 | 00:00:00 | |
| DM0DOS-11 | 2026-09-06 01:00:28 | 58.17559 | 7.70060 | 94° | 40km/h | 31715m | -72.8m/s | -42.6°C | 2.9% | 9.5hPa | 2.4V | 08:30:00 | 02:21:13 | 00:00:00 | |
| DL1XH1-15 | 2026-09-06 01:00:24 | 58.17567 | 7.69978 | 102° | 47km/h | 31998m | -66.3m/s | -41.7°C | 2.6% | 9.1hPa | 2.5V | 08:30:00 | 02:21:09 | 00:00:00 | |
| DL1XH-west | 2026-09-06 01:00:23 | 58.17559 | 7.70060 | 95° | 40km/h | 31715m | -72.8m/s | -42.6°C | 0.1% | 0hPa | 2.4V | 18:12:15 | 02:21:13 | 00:00:00 | |
| AA1-15 | 2026-09-06 01:00:18 | 58.17570 | 7.69956 | 107° | 49km/h | 32063m | -64.5m/s | -41.1°C | 0% | 9hPa | 2.4V | 18:12:15 | 02:21:08 | 00:00:00 | |
| DM0DOS-11 | 2026-09-06 01:00:18 | 58.17596 | 7.69840 | 117° | 53km/h | 32361m | -47.8m/s | -40.5°C | 2.3% | 8.6hPa | 2.5V | 08:30:00 | 02:21:03 | 00:00:00 | |
| DL1XH1-15 | 2026-09-06 01:00:14 | 58.17618 | 7.69755 | 114° | 46km/h | 32504m | -23.3m/s | -41.6°C | 2.6% | 8.4hPa | 2.5V | 08:30:00 | 02:20:59 | 00:00:00 | |
| DL1XH-west | 2026-09-06 01:00:13 | 58.17596 | 7.69840 | 117° | 53km/h | 32361m | -47.8m/s | -40.5°C | 0% | 0hPa | 2.5V | 18:12:15 | 02:21:03 | 00:00:00 | |
| AA1-15 | 2026-09-06 01:00:07 | 58.17628 | 7.69716 | 120° | 46km/h | 32534m | -7.5m/s | -41.8°C | 0% | 8.3hPa | 2.5V | 18:12:15 | 02:20:57 | 00:00:00 | |
| DM0DOS-11 | 2026-09-06 01:00:03 | 58.17651 | 7.69614 | 97° | 51km/h | 32520m | 5.6m/s | -41.6°C | 2.6% | 8.3hPa | 2.5V | 08:30:00 | 02:20:52 | 00:00:00 | |
| DL1XH-west | 2026-09-06 01:00:02 | 58.17651 | 7.69614 | 97° | 51km/h | 32520m | 5.6m/s | -41.7°C | 0% | 0hPa | 2.5V | 18:12:15 | 02:20:52 | 00:00:00 | |
| DM0DOS-11 | 2026-09-06 00:59:56 | 58.17661 | 7.69345 | 100° | 46km/h | 32469m | 5.1m/s | -41.5°C | 2.6% | 8.4hPa | 2.5V | 08:30:00 | 02:20:42 | 00:00:00 | |
| AA1-15 | 2026-09-06 00:59:56 | 58.17649 | 7.69439 | 98° | 58km/h | 32490m | 4.7m/s | -41.6°C | 0% | 8.4hPa | 2.5V | 18:12:15 | 02:20:46 | 00:00:00 | |
| DL1XH-west | 2026-09-06 00:59:51 | 58.17662 | 7.69323 | 98° | 47km/h | 32464m | 4.7m/s | -41.5°C | 0% | 0hPa | 2.5V | 18:12:15 | 02:20:41 | 00:00:00 | |
| DL1XH1-15 | 2026-09-06 00:59:49 | 58.17667 | 7.69250 | 97° | 57km/h | 32448m | 5.7m/s | -41.4°C | 2.6% | 8.4hPa | 2.5V | 08:30:00 | 02:20:38 | 00:00:00 | |
| AA1-15 | 2026-09-06 00:59:44 | 58.17672 | 7.69134 | 87° | 62km/h | 32428m | 6.2m/s | -41.3°C | 0% | 8.4hPa | 2.5V | 18:12:15 | 02:20:34 | 00:00:00 | |
| DM0DOS-11 | 2026-09-06 00:59:43 | 58.17668 | 7.69078 | 79° | 57km/h | 32417m | 4.5m/s | -41.2°C | 2.6% | 8.4hPa | 2.5V | 08:30:00 | 02:20:32 | 00:00:00 | |
| DL1XH-west | 2026-09-06 00:59:41 | 58.17665 | 7.69052 | 82° | 53km/h | 32413m | 3.9m/s | -41.2°C | 0% | 0hPa | 2.5V | 18:12:15 | 02:20:31 | 00:00:00 | |
| DM0DOS-11 | 2026-09-06 00:59:37 | 58.17679 | 7.68816 | 77° | 57km/h | 32369m | 4.9m/s | -40.9°C | 2.5% | 8.5hPa | 2.5V | 08:30:00 | 02:20:22 | 00:00:00 | |
| DL1XH-15 | 2026-09-06 00:59:36 | 58.17679 | 7.68896 | 103° | 58km/h | 32384m | 4.4m/s | -41°C | 2.5% | 8.5hPa | 2.5V | 08:30:00 | 02:20:25 | 00:00:00 | |
| AA1-15 | 2026-09-06 00:59:34 | 58.17681 | 7.68869 | 95° | 57km/h | 32379m | 5.3m/s | -41°C | 0% | 8.5hPa | 2.5V | 18:12:15 | 02:20:24 | 00:00:00 | |
| DL1XH-west | 2026-09-06 00:59:31 | 58.17675 | 7.68789 | 73° | 60km/h | 32364m | 4.6m/s | 0°C | 0% | 0hPa | 2.5V | 18:12:15 | 02:20:21 | 00:00:00 | |
| DL1XH-15 | 2026-09-06 00:59:30 | 58.17663 | 7.68615 | 91° | 60km/h | 32333m | 5.5m/s | -41.1°C | 2.4% | 8.6hPa | 2.6V | 08:30:00 | 02:20:15 | 00:00:00 | |
| AA1-15 | 2026-09-06 00:59:24 | 58.17664 | 7.68587 | 93° | 58km/h | 32328m | 5.2m/s | -41.1°C | 0% | 8.6hPa | 2.5V | 18:12:15 | 02:20:14 | 00:00:00 | |
| DM0DOS-11 | 2026-09-06 00:59:23 | 58.17665 | 7.68532 | 93° | 58km/h | 32318m | 4.8m/s | -41.1°C | 2.4% | 8.6hPa | 2.4V | 08:30:00 | 02:20:12 | 00:00:00 | |
| DL1XH-west | 2026-09-06 00:59:21 | 58.17666 | 7.68504 | 94° | 58km/h | 32313m | 5.6m/s | 0°C | 0% | 0hPa | 2.5V | 18:12:15 | 02:20:11 | 00:00:00 | |
| DM0DOS-11 | 2026-09-06 00:59:18 | 58.17644 | 7.68285 | 80° | 47km/h | 32269m | 5.4m/s | -41.5°C | 2.4% | 8.6hPa | 2.5V | 08:30:00 | 02:20:02 | 00:00:00 | |
| DL1XH-15 | 2026-09-06 00:59:14 | 58.17647 | 7.68306 | 71° | 46km/h | 32274m | 4.2m/s | -41.4°C | 2.5% | 8.6hPa | 2.5V | 08:30:00 | 02:20:03 | 00:00:00 | |
| AA1-15 | 2026-09-06 00:59:14 | 58.17651 | 7.68326 | 66° | 46km/h | 32278m | 3.7m/s | -41.4°C | 0% | 8.6hPa | 2.5V | 18:12:15 | 02:20:04 | 00:00:00 | |
| DM0DOS-11 | 2026-09-06 00:59:07 | 58.17633 | 7.68046 | 67° | 49km/h | 32218m | 5.1m/s | -42.4°C | 2.6% | 8.7hPa | 2.5V | 08:30:00 | 02:19:52 | 00:00:00 | |
| DL1XH-15 | 2026-09-06 00:59:04 | 58.17638 | 7.68067 | 65° | 49km/h | 32223m | 5.1m/s | -42.3°C | 2.6% | 8.7hPa | 2.5V | 08:30:00 | 02:19:53 | 00:00:00 | |
| AA1-15 | 2026-09-06 00:59:04 | 58.17643 | 7.68088 | 68° | 47km/h | 32228m | 4.5m/s | -42.3°C | 0% | 8.7hPa | 2.6V | 18:12:15 | 02:19:54 | 00:00:00 | |
| DL1XH-15 | 2026-09-06 00:58:58 | 58.17622 | 7.67865 | 90° | 51km/h | 32171m | 5.2m/s | -42.7°C | 2.6% | 8.8hPa | 2.5V | 08:30:00 | 02:19:43 | 00:00:00 | |
| DM0DOS-11 | 2026-09-06 00:58:57 | 58.17622 | 7.67841 | 88° | 51km/h | 32166m | 3.8m/s | -42.7°C | 2.6% | 8.8hPa | 2.5V | 08:30:00 | 02:19:42 | 00:00:00 | |
| AA1-15 | 2026-09-06 00:58:54 | 58.17622 | 7.67889 | 91° | 47km/h | 32177m | 6.3m/s | -42.7°C | 0% | 8.8hPa | 2.5V | 18:12:15 | 02:19:44 | 00:00:00 | |
| DM0DOS-11 | 2026-09-06 00:58:47 | 58.17610 | 7.67674 | 86° | 42km/h | 32117m | 4.2m/s | -43.1°C | 2.6% | 8.8hPa | 2.5V | 08:30:00 | 02:19:32 | 00:00:00 | |
| DL1XH-15 | 2026-09-06 00:58:46 | 58.17610 | 7.67693 | 86° | 40km/h | 32122m | 4.4m/s | -43°C | 2.6% | 8.8hPa | 2.5V | 08:30:00 | 02:19:33 | 00:00:00 | |
| AA1-15 | 2026-09-06 00:58:43 | 58.17610 | 7.67693 | 86° | 40km/h | 32122m | 4.4m/s | -43°C | 0% | 8.8hPa | 2.5V | 18:12:15 | 02:19:33 | 00:00:00 | |
| DL1XH-15 | 2026-09-06 00:58:38 | 58.17596 | 7.67532 | 75° | 33km/h | 32072m | 4.7m/s | -43.6°C | 2.7% | 8.9hPa | 2.5V | 08:30:00 | 02:19:23 | 00:00:00 | |
| DM0DOS-11 | 2026-09-06 00:58:37 | 58.17594 | 7.67518 | 71° | 29km/h | 32067m | 5.1m/s | -43.7°C | 2.7% | 8.9hPa | 2.5V | 08:30:00 | 02:19:22 | 00:00:00 | |
| AA1-15 | 2026-09-06 00:58:33 | 58.17596 | 7.67532 | 76° | 33km/h | 32072m | 4.7m/s | -43.6°C | 0% | 8.9hPa | 2.5V | 18:12:15 | 02:19:23 | 00:00:00 | |
| DM0DOS-11 | 2026-09-06 00:58:27 | 58.17588 | 7.67370 | 90° | 33km/h | 32015m | 4.8m/s | -44.1°C | 2.8% | 9hPa | 2.5V | 08:30:00 | 02:19:12 | 00:00:00 | |
| AA1-15 | 2026-09-06 00:58:22 | 58.17588 | 7.67370 | 91° | 33km/h | 32015m | 4.8m/s | -44.2°C | 0.1% | 9hPa | 2.5V | 18:12:15 | 02:19:12 | 00:00:00 | |
| DL1XH-15 | 2026-09-06 00:58:16 | 58.17570 | 7.67237 | 70° | 20km/h | 31963m | 4.7m/s | -44.3°C | 2.9% | 9.1hPa | 2.5V | 08:30:00 | 02:19:02 | 00:00:00 | |
| AA1-15 | 2026-09-06 00:58:12 | 58.17570 | 7.67237 | 71° | 20km/h | 31963m | 4.7m/s | -44.3°C | 0.1% | 9.1hPa | 2.5V | 18:12:15 | 02:19:02 | 00:00:00 | |
| DL1XH-15 | 2026-09-06 00:58:07 | 58.17572 | 7.67102 | 79° | 26km/h | 31910m | 5.7m/s | -44.5°C | 2.9% | 9.2hPa | 2.5V | 08:30:00 | 02:18:52 | 00:00:00 | |
| DM0DOS-11 | 2026-09-06 00:58:01 | 58.17564 | 7.67039 | 75° | 27km/h | 31884m | 4.5m/s | -44.8°C | 2.9% | 9.2hPa | 2.5V | 08:30:00 | 02:18:47 | 00:00:00 | |
| AA1-15 | 2026-09-06 00:58:01 | 58.17570 | 7.67089 | 79° | 27km/h | 31905m | 5m/s | -44.5°C | 0.2% | 9.2hPa | 2.5V | 18:12:15 | 02:18:51 | 00:00:00 | |
| DL1XH-15 | 2026-09-06 00:57:57 | 58.17560 | 7.66945 | 91° | 47km/h | 31857m | 4.7m/s | -45°C | 3% | 9.2hPa | 2.5V | 08:30:00 | 02:18:42 | 00:00:00 | |
| DM0DOS-11 | 2026-09-06 00:57:50 | 58.17560 | 7.66855 | 82° | 31km/h | 31830m | 5.7m/s | -44.9°C | 2.9% | 9.2hPa | 2.5V | 08:30:00 | 02:18:37 | 00:00:00 | |
| AA1-15 | 2026-09-06 00:57:49 | 58.17561 | 7.66885 | 89° | 35km/h | 31840m | 4.8m/s | -44.9°C | 0.2% | 9.2hPa | 2.5V | 18:12:15 | 02:18:39 | 00:00:00 | |
| DM0DOS-11 | 2026-09-06 00:57:38 | 58.17549 | 7.66676 | 72° | 47km/h | 31774m | 6m/s | -44.8°C | 2.9% | 9.3hPa | 2.5V | 08:30:00 | 02:18:27 | 00:00:00 | |
| AA1-15 | 2026-09-06 00:57:38 | 58.17552 | 7.66697 | 77° | 42km/h | 31780m | 6.2m/s | -44.8°C | 0.1% | 9.3hPa | 2.5V | 18:12:15 | 02:18:28 | 00:00:00 | |
| DM0DOS-11 | 2026-09-06 00:57:32 | 58.17521 | 7.66507 | 67° | 44km/h | 31721m | 5.4m/s | -45°C | 3% | 9.4hPa | 2.5V | 08:30:00 | 02:18:17 | 00:00:00 | |
| AA1-15 | 2026-09-06 00:57:27 | 58.17521 | 7.66507 | 67° | 44km/h | 31721m | 5.4m/s | -45°C | 0.2% | 9.4hPa | 2.5V | 18:12:15 | 02:18:17 | 00:00:00 | |
| AA1-15 | 2026-09-06 00:57:17 | 58.17462 | 7.66328 | 61° | 46km/h | 31666m | 5m/s | -45.3°C | 0.2% | 9.5hPa | 2.5V | 18:12:15 | 02:18:07 | 00:00:00 | |
| DL1XH-15 | 2026-09-06 00:57:17 | 58.17430 | 7.66252 | 43° | 44km/h | 31640m | 5.4m/s | -45.4°C | 3% | 9.5hPa | 2.5V | 08:30:00 | 02:18:02 | 00:00:00 | |
| DL1XH1-15 | 2026-09-06 00:57:13 | 58.17403 | 7.66201 | 47° | 55km/h | 31622m | 5m/s | -45.5°C | 3% | 9.6hPa | 2.6V | 08:30:00 | 02:17:59 | 00:00:00 | |
| DL1XH-west | 2026-09-06 00:57:13 | 58.17437 | 7.66266 | 43° | 40km/h | 31644m | 4.3m/s | -45.4°C | 0.2% | 9.5hPa | 2.5V | 18:12:15 | 02:18:03 | 00:00:00 | |
| DL1XH-15 | 2026-09-06 00:57:07 | 58.17350 | 7.66089 | 59° | 38km/h | 31583m | 5.7m/s | -45.5°C | 3% | 9.6hPa | 2.6V | 08:30:00 | 02:17:52 | 00:00:00 | |
| AA1-15 | 2026-09-06 00:57:07 | 58.17384 | 7.66164 | 46° | 51km/h | 31612m | 5.9m/s | -45.5°C | 0.3% | 9.6hPa | 2.5V | 18:12:15 | 02:17:57 | 00:00:00 | |
| DL1XH-west | 2026-09-06 00:57:01 | 58.17345 | 7.66073 | 62° | 40km/h | 31578m | 5m/s | -45.5°C | 0.2% | 9.6hPa | 2.5V | 18:12:15 | 02:17:51 | 00:00:00 | |
| DM0DOS-11 | 2026-09-06 00:57:01 | 58.17319 | 7.66003 | 42° | 37km/h | 31551m | 4.4m/s | -45.6°C | 3% | 9.7hPa | 2.5V | 08:30:00 | 02:17:46 | 00:00:00 | |
| DL1XH1-15 | 2026-09-06 00:57:01 | 58.17331 | 7.66027 | 51° | 35km/h | 31562m | 6.1m/s | -45.6°C | 3% | 9.6hPa | 2.5V | 08:30:00 | 02:17:48 | 00:00:00 | |
| DL1XH-15 | 2026-09-06 00:56:57 | 58.17290 | 7.65942 | 57° | 46km/h | 31531m | 4m/s | -45.7°C | 3% | 9.7hPa | 2.5V | 08:30:00 | 02:17:42 | 00:00:00 | |
| AA1-15 | 2026-09-06 00:56:56 | 58.17319 | 7.66003 | 42° | 37km/h | 31551m | 4.4m/s | -45.6°C | 0.2% | 9.7hPa | 2.5V | 18:12:15 | 02:17:46 | 00:00:00 | |
| DL1XH-west | 2026-09-06 00:56:51 | 58.17285 | 7.65924 | 60° | 42km/h | 31526m | 4.8m/s | -45.7°C | 0.2% | 9.7hPa | 2.5V | 18:12:15 | 02:17:41 | 00:00:00 | |
| DM0DOS-11 | 2026-09-06 00:56:50 | 58.17263 | 7.65866 | 46° | 26km/h | 31499m | 5m/s | -45.7°C | 3% | 9.7hPa | 2.5V | 08:30:00 | 02:17:36 | 00:00:00 | |
| AA1-15 | 2026-09-06 00:56:46 | 58.17263 | 7.65866 | 47° | 26km/h | 31499m | 5m/s | -45.7°C | 0.2% | 9.7hPa | 2.5V | 18:12:15 | 02:17:36 | 00:00:00 | |
| DJ2DS-15 | 2026-09-06 00:56:45 | 58.17254 | 7.65845 | 56° | 31km/h | 31488m | 5.5m/s | -45.7°C | 0.9% | 9.7hPa | 2.5V | 00:00:00 | 00:00:00 | 00:00:00 | |
| DM0DOS-11 | 2026-09-06 00:56:40 | 58.17223 | 7.65742 | 69° | 24km/h | 31445m | 6.1m/s | -45.9°C | 3.1% | 9.8hPa | 2.5V | 08:30:00 | 02:17:26 | 00:00:00 | |
| AA1-15 | 2026-09-06 00:56:36 | 58.17222 | 7.65742 | 69° | 24km/h | 31445m | 6.1m/s | -45.9°C | 0.3% | 9.8hPa | 2.5V | 18:12:15 | 02:17:26 | 00:00:00 | |
| DM0DOS-11 | 2026-09-06 00:56:30 | 58.17179 | 7.65655 | 46° | 38km/h | 31393m | 4.4m/s | -46.1°C | 3.1% | 9.9hPa | 2.5V | 08:30:00 | 02:17:16 | 00:00:00 | |
| DL1XH-west | 2026-09-06 00:56:27 | 58.17186 | 7.65667 | 42° | 38km/h | 31397m | 5.2m/s | -46.1°C | 0.3% | 9.9hPa | 2.5V | 18:12:15 | 02:17:17 | 00:00:00 | |
| DL1XH-15 | 2026-09-06 00:56:26 | 58.17162 | 7.65608 | 80° | 11km/h | 31366m | 5.6m/s | -46.2°C | 3.1% | 9.9hPa | 2.5V | 08:30:00 | 02:17:11 | 00:00:00 | |
| AA1-15 | 2026-09-06 00:56:26 | 58.17179 | 7.65654 | 47° | 38km/h | 31393m | 4.4m/s | -46.1°C | 0.3% | 9.9hPa | 2.5V | 18:12:15 | 02:17:16 | 00:00:00 | |
| DL1XH1-15 | 2026-09-06 00:56:19 | 58.17157 | 7.65584 | 44° | 18km/h | 31345m | 5m/s | -46.2°C | 3.1% | 10hPa | 2.6V | 08:30:00 | 02:17:07 | 00:00:00 | |
| DL1XH-15 | 2026-09-06 00:56:16 | 58.17130 | 7.65545 | 61° | 29km/h | 31312m | 5.4m/s | -46.2°C | 3.1% | 10hPa | 2.5V | 08:30:00 | 02:17:01 | 00:00:00 | |
| DL1XH-west | 2026-09-06 00:56:16 | 58.17153 | 7.65579 | 35° | 18km/h | 31340m | 6.3m/s | -46.2°C | 0.3% | 10hPa | 2.5V | 18:12:15 | 02:17:06 | 00:00:00 | |
| DM0DOS-11 | 2026-09-06 00:56:15 | 58.17144 | 7.65570 | 25° | 22km/h | 31328m | 4.5m/s | -46.2°C | 3.1% | 10hPa | 2.5V | 08:30:00 | 02:17:04 | 00:00:00 | |
| AA1-15 | 2026-09-06 00:56:14 | 58.17144 | 7.65570 | 26° | 22km/h | 31328m | 4.5m/s | -46.2°C | 0.3% | 10hPa | 2.5V | 18:12:15 | 02:17:04 | 00:00:00 | |
| DL1XH1-15 | 2026-09-06 00:56:09 | 58.17125 | 7.65499 | 86° | 16km/h | 31290m | 5.6m/s | -46.3°C | 3.1% | 10.1hPa | 2.5V | 08:30:00 | 02:16:57 | 00:00:00 | |
| DM0DOS-11 | 2026-09-06 00:56:08 | 58.17121 | 7.65478 | 54° | 13km/h | 31268m | 5.3m/s | -46.4°C | 3.1% | 10.1hPa | 2.6V | 08:30:00 | 02:16:53 | 00:00:00 | |
| DL1XH-15 | 2026-09-06 00:56:06 | 58.17117 | 7.65468 | 41° | 15km/h | 31258m | 5m/s | -46.5°C | 3.1% | 10.1hPa | 2.5V | 08:30:00 | 02:16:51 | 00:00:00 | |
| DL1XH-west | 2026-09-06 00:56:05 | 58.17124 | 7.65487 | 70° | 9km/h | 31279m | 5.1m/s | -46.3°C | 0.3% | 10.1hPa | 2.5V | 18:12:15 | 02:16:55 | 00:00:00 | |
| AA1-15 | 2026-09-06 00:56:04 | 58.17123 | 7.65483 | 61° | 11km/h | 31274m | 6m/s | -46.4°C | 0.3% | 10.1hPa | 2.5V | 18:12:15 | 02:16:54 | 00:00:00 | |
| DL1XH1-15 | 2026-09-06 00:55:59 | 58.17109 | 7.65445 | 91° | 18km/h | 31231m | 6.6m/s | -46.6°C | 3.2% | 10.2hPa | 2.5V | 08:30:00 | 02:16:46 | 00:00:00 | |
| DL1XH-15 | 2026-09-06 00:55:56 | 58.17110 | 7.65402 | 50° | 7km/h | 31205m | 5.2m/s | -46.7°C | 3.2% | 10.2hPa | 2.6V | 08:30:00 | 02:16:41 | 00:00:00 | |
| DM0DOS-11 | 2026-09-06 00:55:56 | 58.17110 | 7.65415 | 96° | 20km/h | 31216m | 4.4m/s | -46.6°C | 3.2% | 10.2hPa | 2.5V | 08:30:00 | 02:16:43 | 00:00:00 | |
| DL1XH-west | 2026-09-06 00:55:54 | 58.17110 | 7.65425 | 97° | 24km/h | 31220m | 4.6m/s | -46.6°C | 0.3% | 10.2hPa | 2.5V | 18:12:15 | 02:16:44 | 00:00:00 | |
| AA1-15 | 2026-09-06 00:55:54 | 58.17110 | 7.65415 | 96° | 20km/h | 31216m | 4.4m/s | -46.7°C | 0.4% | 10.2hPa | 2.5V | 18:12:15 | 02:16:43 | 00:00:00 | |
| DL1XH1-15 | 2026-09-06 00:55:49 | 58.17089 | 7.65390 | 39° | 18km/h | 31173m | 4.6m/s | -46.7°C | 3.2% | 10.2hPa | 2.5V | 08:30:00 | 02:16:35 | 00:00:00 | |
| DL1XH-15 | 2026-09-06 00:55:46 | 58.17080 | 7.65373 | 48° | 9km/h | 31151m | 4.6m/s | -46.6°C | 3.3% | 10.2hPa | 2.5V | 08:30:00 | 02:16:31 | 00:00:00 | |
| DM0DOS-11 | 2026-09-06 00:55:44 | 58.17083 | 7.65380 | 48° | 13km/h | 31162m | 6.3m/s | -46.7°C | 3.3% | 10.2hPa | 2.5V | 08:30:00 | 02:16:33 | 00:00:00 | |
| DL1XH-west | 2026-09-06 00:55:43 | 58.17083 | 7.65380 | 48° | 13km/h | 31162m | 6.3m/s | -46.7°C | 0.5% | 10.2hPa | 2.5V | 18:12:15 | 02:16:33 | 00:00:00 | |
| DM0DOS-11 | 2026-09-06 00:55:34 | 58.17056 | 7.65337 | 13° | 15km/h | 31108m | 4.3m/s | -46.5°C | 3.2% | 10.3hPa | 2.5V | 08:30:00 | 02:16:23 | 00:00:00 | |
| DL1XH-west | 2026-09-06 00:55:33 | 58.17056 | 7.65337 | 13° | 15km/h | 31108m | 4.3m/s | -46.5°C | 0.4% | 10.3hPa | 2.5V | 18:12:15 | 02:16:23 | 00:00:00 | |
| DM0DOS-11 | 2026-09-06 00:55:24 | 58.17046 | 7.65305 | 41° | 9km/h | 31054m | 6.4m/s | -46.2°C | 3.2% | 10.4hPa | 2.5V | 08:30:00 | 02:16:13 | 00:00:00 | |
| DL1XH-15 | 2026-09-06 00:55:22 | 58.17029 | 7.65276 | 62° | 11km/h | 31020m | 5.2m/s | -46.1°C | 3.1% | 10.5hPa | 2.5V | 08:30:00 | 02:16:07 | 00:00:00 | |
| DL1XH-west | 2026-09-06 00:55:22 | 58.17044 | 7.65301 | 41° | 16km/h | 31048m | 5.3m/s | -46.2°C | 0.3% | 10.4hPa | 2.5V | 18:12:15 | 02:16:12 | 00:00:00 | |
| DM0DOS-11 | 2026-09-06 00:55:18 | 58.17030 | 7.65249 | 101° | 18km/h | 30997m | 5.2m/s | -46.1°C | 3.2% | 10.5hPa | 2.5V | 08:30:00 | 02:16:03 | 00:00:00 | |
| DL1XH-15 | 2026-09-06 00:55:12 | 58.17023 | 7.65213 | 45° | 24km/h | 30964m | 6m/s | -46.2°C | 3.2% | 10.6hPa | 2.5V | 08:30:00 | 02:15:57 | 00:00:00 | |
| DL1XH-west | 2026-09-06 00:55:12 | 58.17031 | 7.65241 | 103° | 15km/h | 30992m | 6.2m/s | -46.1°C | 0.4% | 10.5hPa | 2.5V | 18:12:15 | 02:16:02 | 00:00:00 | |
| DL1XH-15 | 2026-09-06 00:55:02 | 58.17014 | 7.65105 | 91° | 27km/h | 30908m | 4.9m/s | -46°C | 3.1% | 10.6hPa | 2.5V | 08:30:00 | 02:15:47 | 00:00:00 | |
| DL1XH-west | 2026-09-06 00:55:01 | 58.17009 | 7.65156 | 104° | 22km/h | 30931m | 5.6m/s | -46.1°C | 0.4% | 10.6hPa | 2.5V | 18:12:15 | 02:15:51 | 00:00:00 | |
| DM0DOS-11 | 2026-09-06 00:54:57 | 58.17013 | 7.65083 | 68° | 20km/h | 30896m | 5.8m/s | -46°C | 3% | 10.7hPa | 2.5V | 08:30:00 | 02:15:45 | 00:00:00 | |
| DJ2DS-15 | 2026-09-06 00:54:57 | 58.17014 | 7.65093 | 82° | 22km/h | 30903m | 6.2m/s | -46.0°C | 0.9% | 10.7hPa | 2.5V | 00:00:00 | 00:00:00 | 00:00:00 | |
| DL1XH-15 | 2026-09-06 00:54:52 | 58.16984 | 7.64990 | 72° | 27km/h | 30852m | 4.9m/s | -46.2°C | 3.1% | 10.7hPa | 2.5V | 08:30:00 | 02:15:37 | 00:00:00 | |
| DL1XH-west | 2026-09-06 00:54:51 | 58.16998 | 7.65043 | 56° | 33km/h | 30874m | 4.8m/s | -46°C | 0.3% | 10.7hPa | 2.5V | 18:12:15 | 02:15:41 | 00:00:00 | |
| AA1-15 | 2026-09-06 00:54:39 | 58.16964 | 7.64869 | 61° | 29km/h | 30808m | 5.2m/s | -46.5°C | 0.4% | 10.8hPa | 2.5V | 18:12:15 | 02:15:29 | 00:00:00 | |
| DM0DOS-11 | 2026-09-06 00:54:35 | 58.16946 | 7.64805 | 68° | 33km/h | 30781m | 4.4m/s | -46.4°C | 3.2% | 10.9hPa | 2.5V | 08:30:00 | 02:15:24 | 00:00:00 | |
| DM0DOS-11 | 2026-09-06 00:54:30 | 58.16914 | 7.64671 | 71° | 29km/h | 30731m | 4.9m/s | -46.5°C | 3.2% | 11hPa | 2.5V | 08:30:00 | 02:15:14 | 00:00:00 | |
| DL1XH-west | 2026-09-06 00:54:29 | 58.16931 | 7.64743 | 59° | 29km/h | 30756m | 5m/s | -46.5°C | 0.4% | 10.9hPa | 2.5V | 18:12:15 | 02:15:19 | 00:00:00 | |
| DL1XH-15 | 2026-09-06 00:54:26 | 58.16912 | 7.64659 | 68° | 24km/h | 30725m | 5.8m/s | -46.5°C | 3.2% | 11hPa | 2.6V | 08:30:00 | 02:15:13 | 00:00:00 | |
| DM0DOS-11 | 2026-09-06 00:54:19 | 58.16879 | 7.64585 | 75° | 26km/h | 30676m | 5.6m/s | -46.4°C | 3.2% | 11.1hPa | 2.5V | 08:30:00 | 02:15:04 | 00:00:00 | |
| AA1-15 | 2026-09-06 00:54:18 | 58.16893 | 7.64629 | 39° | 27km/h | 30699m | 4.9m/s | -46.4°C | 0.4% | 11hPa | 2.5V | 18:12:15 | 02:15:08 | 00:00:00 | |
| DL1XH-west | 2026-09-06 00:54:15 | 58.16881 | 7.64597 | 69° | 27km/h | 30682m | 6.1m/s | -46.4°C | 0.4% | 11hPa | 2.5V | 18:12:15 | 02:15:05 | 00:00:00 | |
| DL1XH-15 | 2026-09-06 00:54:15 | 58.16877 | 7.64574 | 75° | 22km/h | 30671m | 4.7m/s | -46.4°C | 3.2% | 11.1hPa | 2.5V | 08:30:00 | 02:15:03 | 00:00:00 | |
| DL1XH-15 | 2026-09-06 00:54:07 | 58.16852 | 7.64512 | 29° | 13km/h | 30616m | 6m/s | -46.3°C | 3.2% | 11.1hPa | 2.5V | 08:30:00 | 02:14:53 | 00:00:00 | |
| AA1-15 | 2026-09-06 00:54:07 | 58.16861 | 7.64523 | 42° | 16km/h | 30638m | 6.2m/s | -46.4°C | 0.4% | 11.1hPa | 2.5V | 18:12:15 | 02:14:57 | 00:00:00 | |
| DL1XH-west | 2026-09-06 00:54:04 | 58.16854 | 7.64515 | 26° | 9km/h | 30621m | 4.5m/s | -46.3°C | 0.4% | 11.1hPa | 2.5V | 18:12:15 | 02:14:54 | 00:00:00 | |
| DM0DOS-11 | 2026-09-06 00:53:59 | 58.16833 | 7.64476 | 68° | 15km/h | 30581m | 4.9m/s | -46.1°C | 3.1% | 11.2hPa | 2.5V | 08:30:00 | 02:14:47 | 00:00:00 | |
| DL1XH-15 | 2026-09-06 00:53:57 | 58.16826 | 7.64453 | 45° | 16km/h | 30558m | 5.1m/s | -46.1°C | 3.1% | 11.2hPa | 2.5V | 08:30:00 | 02:14:43 | 00:00:00 | |
| AA1-15 | 2026-09-06 00:53:57 | 58.16833 | 7.64476 | 69° | 15km/h | 30581m | 4.9m/s | -46.1°C | 0.3% | 11.2hPa | 2.5V | 18:12:15 | 02:14:47 | 00:00:00 | |
| DL1XH-west | 2026-09-06 00:53:54 | 58.16829 | 7.64458 | 54° | 15km/h | 30564m | 5.7m/s | -46.1°C | 0.3% | 11.2hPa | 2.5V | 18:12:15 | 02:14:44 | 00:00:00 | |
| DL1XH1-15 | 2026-09-06 00:53:54 | 58.16821 | 7.64443 | 42° | 13km/h | 30547m | 6.4m/s | -46.2°C | 3.1% | 11.3hPa | 2.4V | 08:30:00 | 02:14:41 | 00:00:00 | |
| AA1-15 | 2026-09-06 00:53:46 | 58.16811 | 7.64409 | 60° | 29km/h | 30518m | 6m/s | -46.4°C | 0.4% | 11.3hPa | 2.5V | 18:12:15 | 02:14:36 | 00:00:00 | |
| DJ2DS-15 | 2026-09-06 00:53:45 | 58.16803 | 7.64384 | 58° | 31km/h | 30508m | 4.5m/s | -46.5°C | 0% | 11.3hPa | 2.5V | 00:00:00 | 00:00:00 | 00:00:00 | |
| DL1XH1-15 | 2026-09-06 00:53:44 | 58.16791 | 7.64350 | 46° | 13km/h | 30485m | 5.4m/s | -46.6°C | 3.2% | 11.4hPa | 2.5V | 08:30:00 | 02:14:30 | 00:00:00 | |
| DL1XH-west | 2026-09-06 00:53:43 | 58.16799 | 7.64372 | 58° | 27km/h | 30503m | 5.9m/s | -46.5°C | 0.3% | 11.3hPa | 2.5V | 18:12:15 | 02:14:33 | 00:00:00 | |
| DM0DOS-11 | 2026-09-06 00:53:42 | 58.16782 | 7.64336 | 45° | 20km/h | 30467m | 4.7m/s | -46.7°C | 3.2% | 11.4hPa | 2.5V | 08:30:00 | 02:14:27 | 00:00:00 | |
| AA1-15 | 2026-09-06 00:53:35 | 58.16775 | 7.64317 | 63° | 27km/h | 30456m | 6.4m/s | -46.8°C | 0.4% | 11.4hPa | 2.5V | 18:12:15 | 02:14:25 | 00:00:00 | |
| DL1XH-west | 2026-09-06 00:53:32 | 58.16768 | 7.64275 | 75° | 35km/h | 30439m | 4.7m/s | -46.8°C | 0.4% | 11.5hPa | 2.4V | 18:12:15 | 02:14:22 | 00:00:00 | |
| DL1XH1-15 | 2026-09-06 00:53:29 | 58.16747 | 7.64209 | 42° | 26km/h | 30411m | 5.7m/s | -46.7°C | 3.2% | 11.5hPa | 2.5V | 08:30:00 | 02:14:17 | 00:00:00 | |
| DL1XH-15 | 2026-09-06 00:53:27 | 58.16743 | 7.64201 | 48° | 20km/h | 30406m | 5.9m/s | -46.7°C | 3.2% | 11.5hPa | 2.5V | 08:30:00 | 02:14:16 | 00:00:00 | |
| AA1-15 | 2026-09-06 00:53:24 | 58.16740 | 7.64185 | 80° | 22km/h | 30395m | 4.4m/s | -46.6°C | 0.4% | 11.5hPa | 2.5V | 18:12:15 | 02:14:14 | 00:00:00 | |
| DL1XH-west | 2026-09-06 00:53:21 | 58.16735 | 7.64143 | 72° | 38km/h | 30378m | 6m/s | -46.6°C | 0.4% | 11.6hPa | 2.5V | 18:12:15 | 02:14:11 | 00:00:00 | |
| AA1-15 | 2026-09-06 00:53:13 | 58.16706 | 7.64013 | 69° | 27km/h | 30332m | 5.5m/s | -46.5°C | 0.4% | 11.6hPa | 2.5V | 18:12:15 | 02:14:03 | 00:00:00 | |
| DL1XH-west | 2026-09-06 00:53:10 | 58.16696 | 7.63982 | 54° | 26km/h | 30315m | 5.1m/s | -46.6°C | 0.4% | 11.7hPa | 2.5V | 18:12:15 | 02:14:00 | 00:00:00 | |
| DL1XH-15 | 2026-09-06 00:53:07 | 58.16685 | 7.63911 | 72° | 29km/h | 30277m | 5.8m/s | -46.6°C | 3.2% | 11.8hPa | 2.5V | 08:30:00 | 02:13:54 | 00:00:00 | |
| DL1XH1-15 | 2026-09-06 00:53:04 | 58.16679 | 7.63848 | 89° | 22km/h | 30249m | 4.5m/s | -46.7°C | 3.2% | 11.8hPa | 2.6V | 08:30:00 | 02:13:49 | 00:00:00 | |
| AA1-15 | 2026-09-06 00:53:02 | 58.16680 | 7.63885 | 76° | 29km/h | 30266m | 6.2m/s | -46.7°C | 0.4% | 11.8hPa | 2.5V | 18:12:15 | 02:13:52 | 00:00:00 | |
| DL1XH-west | 2026-09-06 00:52:59 | 58.16679 | 7.63848 | 89° | 22km/h | 30249m | 4.5m/s | -46.7°C | 0.4% | 11.8hPa | 2.6V | 18:12:15 | 02:13:49 | 00:00:00 | |
| DM0DOS-11 | 2026-09-06 00:52:56 | 58.16669 | 7.63808 | 60° | 16km/h | 30221m | 5.4m/s | -46.7°C | 3.2% | 11.8hPa | 2.5V | 08:30:00 | 02:13:44 | 00:00:00 | |
| DL1XH1-15 | 2026-09-06 00:52:54 | 58.16671 | 7.63768 | 98° | 20km/h | 30190m | 6.4m/s | -46.7°C | 3.2% | 11.9hPa | 2.5V | 08:30:00 | 02:13:39 | 00:00:00 | |
| AA1-15 | 2026-09-06 00:52:51 | 58.16669 | 7.63786 | 107° | 18km/h | 30202m | 5.8m/s | -46.7°C | 0.4% | 11.9hPa | 2.5V | 18:12:15 | 02:13:41 | 00:00:00 | |
| DM0DOS-11 | 2026-09-06 00:52:49 | 58.16673 | 7.63732 | 127° | 11km/h | 30162m | 6m/s | -46.7°C | 3.2% | 12hPa | 2.5V | 08:30:00 | 02:13:34 | 00:00:00 | |
| DL1XH-west | 2026-09-06 00:52:48 | 58.16672 | 7.63759 | 91° | 18km/h | 30185m | 5.1m/s | -46.7°C | 0.4% | 11.9hPa | 2.5V | 18:12:15 | 02:13:38 | 00:00:00 | |
| AA1-15 | 2026-09-06 00:52:41 | 58.16677 | 7.63724 | 97° | 5km/h | 30144m | 6.4m/s | -46.7°C | 0.4% | 12hPa | 2.5V | 18:12:15 | 02:13:31 | 00:00:00 | |
| DL1XH1-15 | 2026-09-06 00:52:39 | 58.16671 | 7.63702 | 73° | 18km/h | 30120m | 6.5m/s | -46.6°C | 3.2% | 12hPa | 2.5V | 08:30:00 | 02:13:27 | 00:00:00 | |
| DL1XH-west | 2026-09-06 00:52:37 | 58.16672 | 7.63702 | 74° | 18km/h | 30120m | 6.5m/s | -46.6°C | 0.4% | 12.1hPa | 2.5V | 18:12:15 | 02:13:27 | 00:00:00 | |
| DL1XH-15 | 2026-09-06 00:52:32 | 58.16677 | 7.63620 | 123° | 9km/h | 30060m | 6.1m/s | -46.5°C | 3.2% | 12.1hPa | 2.5V | 08:30:00 | 02:13:17 | 00:00:00 | |
| AA1-15 | 2026-09-06 00:52:30 | 58.16672 | 7.63635 | 113° | 16km/h | 30078m | 6.9m/s | -46.6°C | 0.4% | 12.1hPa | 2.5V | 18:12:15 | 02:13:20 | 00:00:00 | |
| DM0DOS-11 | 2026-09-06 00:52:29 | 58.16676 | 7.63595 | 81° | 20km/h | 30038m | 6.2m/s | -46.5°C | 3.2% | 12.2hPa | 2.6V | 08:30:00 | 02:13:13 | 00:00:00 | |
| DL1XH1-15 | 2026-09-06 00:52:29 | 58.16678 | 7.63616 | 89° | 9km/h | 30054m | 5.9m/s | -46.5°C | 3.2% | 12.1hPa | 2.5V | 08:30:00 | 02:13:16 | 00:00:00 | |
| DL1XH-west | 2026-09-06 00:52:26 | 58.16678 | 7.63616 | 90° | 9km/h | 30054m | 5.9m/s | -46.5°C | 0.4% | 12.2hPa | 2.5V | 18:12:15 | 02:13:16 | 00:00:00 | |
| DL1XH-15 | 2026-09-06 00:52:21 | 58.16679 | 7.63532 | 68° | 13km/h | 29997m | 5.4m/s | -46.5°C | 3.2% | 12.2hPa | 2.5V | 08:30:00 | 02:13:06 | 00:00:00 | |
| AA1-15 | 2026-09-06 00:52:19 | 58.16679 | 7.63554 | 105° | 20km/h | 30015m | 5.3m/s | -46.5°C | 0.4% | 12.2hPa | 2.5V | 18:12:15 | 02:13:09 | 00:00:00 | |
| DL1XH-west | 2026-09-06 00:52:14 | 58.16678 | 7.63523 | 85° | 9km/h | 29985m | 6.6m/s | -46.4°C | 0.4% | 12.3hPa | 2.5V | 18:12:15 | 02:13:04 | 00:00:00 | |
| DL1XH-15 | 2026-09-06 00:52:11 | 58.16673 | 7.63456 | 94° | 24km/h | 29937m | 6.2m/s | -46.3°C | 3.2% | 12.4hPa | 2.5V | 08:30:00 | 02:12:56 | 00:00:00 | |
| DM0DOS-11 | 2026-09-06 00:52:08 | 58.16675 | 7.63428 | 90° | 15km/h | 29919m | 6.4m/s | -46.2°C | 3.1% | 12.4hPa | 2.4V | 08:30:00 | 02:12:53 | 00:00:00 | |
| AA1-15 | 2026-09-06 00:52:08 | 58.16674 | 7.63478 | 77° | 24km/h | 29950m | 5.2m/s | -46.4°C | 0.4% | 12.3hPa | 2.5V | 18:12:15 | 02:12:58 | 00:00:00 | |
| DL1XH-west | 2026-09-06 00:52:04 | 58.16675 | 7.63436 | 97° | 18km/h | 29925m | 6.4m/s | -46.3°C | 0.4% | 12.4hPa | 2.5V | 18:12:15 | 02:12:54 | 00:00:00 | |
| DL1XH-15 | 2026-09-06 00:52:01 | 58.16674 | 7.63396 | 61° | 16km/h | 29877m | 5.6m/s | -46.2°C | 3.1% | 12.5hPa | 2.5V | 08:30:00 | 02:12:46 | 00:00:00 | |
| DM0DOS-11 | 2026-09-06 00:51:58 | 58.16671 | 7.63358 | 100° | 24km/h | 29854m | 5.8m/s | -46.3°C | 3.1% | 12.5hPa | 2.5V | 08:30:00 | 02:12:42 | 00:00:00 | |
| AA1-15 | 2026-09-06 00:51:58 | 58.16676 | 7.63406 | 80° | 9km/h | 29889m | 5m/s | -46.2°C | 0.3% | 12.5hPa | 2.5V | 18:12:15 | 02:12:48 | 00:00:00 | |
| DL1XH-west | 2026-09-06 00:51:53 | 58.16670 | 7.63369 | 92° | 24km/h | 29860m | 6.7m/s | -46.3°C | 0.3% | 12.6hPa | 2.5V | 18:12:15 | 02:12:43 | 00:00:00 | |
| AA1-15 | 2026-09-06 00:51:47 | 58.16670 | 7.63316 | 48° | 11km/h | 29826m | 5.5m/s | -46.5°C | 0.4% | 12.6hPa | 2.5V | 18:12:15 | 02:12:37 | 00:00:00 | |
| DL1XH-15 | 2026-09-06 00:51:46 | 58.16663 | 7.63302 | 40° | 11km/h | 29802m | 5m/s | -46.5°C | 3.2% | 12.6hPa | 2.5V | 08:30:00 | 02:12:33 | 00:00:00 | |
| DL1XH-west | 2026-09-06 00:51:42 | 58.16661 | 7.63298 | 37° | 15km/h | 29796m | 6m/s | -46.5°C | 0.4% | 12.6hPa | 2.6V | 18:12:15 | 02:12:32 | 00:00:00 | |
| DL1XH-15 | 2026-09-06 00:51:36 | 58.16665 | 7.63254 | 150° | 9km/h | 29744m | 5.6m/s | -46.4°C | 3.2% | 12.8hPa | 2.5V | 08:30:00 | 02:12:23 | 00:00:00 | |
| AA1-15 | 2026-09-06 00:51:36 | 58.16656 | 7.63266 | 138° | 18km/h | 29762m | 5.3m/s | -46.5°C | 0.4% | 12.7hPa | 2.5V | 18:12:15 | 02:12:26 | 00:00:00 | |
| DL1XH1-15 | 2026-09-06 00:51:32 | 58.16663 | 7.63237 | 37° | 18km/h | 29709m | 6.1m/s | -46.6°C | 3.2% | 12.8hPa | 2.5V | 08:30:00 | 02:12:17 | 00:00:00 | |
| DL1XH-west | 2026-09-06 00:51:31 | 58.16668 | 7.63250 | 139° | 5km/h | 29732m | 5.6m/s | -46.5°C | 0.4% | 12.8hPa | 2.5V | 18:12:15 | 02:12:21 | 00:00:00 | |
| DM0DOS-11 | 2026-09-06 00:51:27 | 58.16655 | 7.63212 | 117° | 13km/h | 29687m | 5.5m/s | -46.6°C | 3.1% | 12.8hPa | 2.5V | 08:30:00 | 02:12:13 | 00:00:00 | |
| AA1-15 | 2026-09-06 00:51:26 | 58.16659 | 7.63231 | 43° | 20km/h | 29703m | 4.6m/s | -46.6°C | 0.4% | 12.8hPa | 2.5V | 18:12:15 | 02:12:16 | 00:00:00 | |
| DL1XH-west | 2026-09-06 00:51:21 | 58.16661 | 7.63205 | 167° | 13km/h | 29676m | 5.9m/s | -46.6°C | 0.3% | 12.9hPa | 2.5V | 18:12:15 | 02:12:11 | 00:00:00 | |
| DL1XH1-15 | 2026-09-06 00:51:19 | 58.16668 | 7.63212 | 280° | 5km/h | 29654m | 4.9m/s | -47°C | 3.2% | 12.9hPa | 2.5V | 08:30:00 | 02:12:07 | 00:00:00 | |
| AA1-15 | 2026-09-06 00:51:16 | 58.16667 | 7.63215 | 309° | 5km/h | 29649m | 5.8m/s | -47°C | 0.4% | 12.9hPa | 2.5V | 18:12:15 | 02:12:06 | 00:00:00 | |
| DL1XH1-15 | 2026-09-06 00:51:12 | 58.16646 | 7.63209 | 349° | 4km/h | 29598m | 5.8m/s | -47.1°C | 3.3% | 13hPa | 2.5V | 08:30:00 | 02:11:57 | 00:00:00 | |
| DL1XH-west | 2026-09-06 00:51:09 | 58.16650 | 7.63208 | 357° | 13km/h | 29610m | 5.1m/s | -47.1°C | 0.5% | 13hPa | 2.5V | 18:12:15 | 02:11:59 | 00:00:00 | |
| AA1-15 | 2026-09-06 00:51:06 | 58.16645 | 7.63209 | 316° | 2km/h | 29593m | 4.6m/s | -47.1°C | 0.5% | 13.1hPa | 2.5V | 18:12:15 | 02:11:56 | 00:00:00 | |
| DL1XH-west | 2026-09-06 00:50:58 | 58.16628 | 7.63221 | 298° | 5km/h | 29550m | 4.5m/s | -47.1°C | 0.5% | 13.1hPa | 2.5V | 18:12:15 | 02:11:48 | 00:00:00 | |
| DM0DOS-11 | 2026-09-06 00:50:56 | 58.16621 | 7.63243 | 305° | 16km/h | 29524m | 4m/s | -46.9°C | 3.3% | 13.2hPa | 2.4V | 08:30:00 | 02:11:43 | 00:00:00 | |
| AA1-15 | 2026-09-06 00:50:54 | 58.16623 | 7.63237 | 308° | 16km/h | 29528m | 5m/s | -46.9°C | 0.5% | 13.2hPa | 2.5V | 18:12:15 | 02:11:44 | 00:00:00 | |
| DL1XH1-15 | 2026-09-06 00:50:49 | 58.16620 | 7.63265 | 234° | 9km/h | 29495m | 5.3m/s | -46.8°C | 3.3% | 13.2hPa | 2.4V | 08:30:00 | 02:11:38 | 00:00:00 | |
| DL1XH-west | 2026-09-06 00:50:48 | 58.16620 | 7.63265 | 235° | 9km/h | 29495m | 5.3m/s | -46.8°C | 0.5% | 13.2hPa | 2.4V | 18:12:15 | 02:11:38 | 00:00:00 | |
| DM0DOS-11 | 2026-09-06 00:50:46 | 58.16621 | 7.63291 | 261° | 11km/h | 29468m | 6m/s | -46.6°C | 3.2% | 13.3hPa | 2.4V | 08:30:00 | 02:11:33 | 00:00:00 | |
| AA1-15 | 2026-09-06 00:50:43 | 58.16621 | 7.63291 | 262° | 11km/h | 29468m | 6m/s | -46.6°C | 0.4% | 13.3hPa | 2.4V | 18:12:15 | 02:11:33 | 00:00:00 | |
| DL1XH1-15 | 2026-09-06 00:50:39 | 58.16623 | 7.63324 | 263° | 16km/h | 29440m | 4.3m/s | -46.5°C | 3.2% | 13.3hPa | 2.5V | 08:30:00 | 02:11:28 | 00:00:00 | |
| DL1XH-west | 2026-09-06 00:50:37 | 58.16623 | 7.63331 | 250° | 15km/h | 29435m | 6.3m/s | -46.5°C | 0.4% | 13.3hPa | 2.5V | 18:12:15 | 02:11:27 | 00:00:00 | |
| DM0DOS-11 | 2026-09-06 00:50:36 | 58.16633 | 7.63348 | 222° | 13km/h | 29411m | 5.3m/s | -46.4°C | 3.1% | 13.4hPa | 2.5V | 08:30:00 | 02:11:23 | 00:00:00 | |
| AA1-15 | 2026-09-06 00:50:32 | 58.16635 | 7.63353 | 229° | 13km/h | 29407m | 4.1m/s | -46.4°C | 0.4% | 13.4hPa | 2.5V | 18:12:15 | 02:11:22 | 00:00:00 | |
| DL1XH-west | 2026-09-06 00:50:26 | 58.16650 | 7.63382 | 256° | 15km/h | 29375m | 6.6m/s | -46.6°C | 0.3% | 13.5hPa | 2.5V | 18:12:15 | 02:11:16 | 00:00:00 | |
| AA1-15 | 2026-09-06 00:50:22 | 58.16653 | 7.63412 | 232° | 16km/h | 29353m | 5.4m/s | -46.7°C | 0.3% | 13.5hPa | 2.5V | 18:12:15 | 02:11:12 | 00:00:00 | |
| DL1XH1-15 | 2026-09-06 00:50:19 | 58.16674 | 7.63438 | 207° | 24km/h | 29327m | 4.8m/s | -46.8°C | 3.2% | 13.6hPa | 2.5V | 08:30:00 | 02:11:07 | 00:00:00 | |
| DM0DOS-11 | 2026-09-06 00:50:16 | 58.16696 | 7.63467 | 248° | 18km/h | 29300m | 5.3m/s | -46.9°C | 3.2% | 13.6hPa | 2.5V | 08:30:00 | 02:11:02 | 00:00:00 | |
| DL1XH-west | 2026-09-06 00:50:15 | 58.16685 | 7.63448 | 205° | 24km/h | 29316m | 4.7m/s | -46.8°C | 0.4% | 13.6hPa | 2.5V | 18:12:15 | 02:11:05 | 00:00:00 | |
| AA1-15 | 2026-09-06 00:50:12 | 58.16696 | 7.63467 | 249° | 18km/h | 29300m | 5.3m/s | -46.9°C | 0.4% | 13.6hPa | 2.5V | 18:12:15 | 02:11:02 | 00:00:00 | |
| DL1XH1-15 | 2026-09-06 00:50:09 | 58.16706 | 7.63508 | 226° | 22km/h | 29273m | 4.5m/s | -47.1°C | 3.2% | 13.7hPa | 2.5V | 08:30:00 | 02:10:57 | 00:00:00 | |
| DL1XH-west | 2026-09-06 00:50:04 | 58.16717 | 7.63531 | 235° | 22km/h | 29256m | 5m/s | -47.4°C | 0.5% | 13.7hPa | 2.5V | 18:12:15 | 02:10:54 | 00:00:00 | |
| DM0DOS-11 | 2026-09-06 00:50:01 | 58.16731 | 7.63564 | 250° | 15km/h | 29232m | 5.5m/s | -47.5°C | 3.3% | 13.8hPa | 2.5V | 08:30:00 | 02:10:49 | 00:00:00 | |
| AA1-15 | 2026-09-06 00:50:01 | 58.16726 | 7.63552 | 222° | 16km/h | 29240m | 4.4m/s | -47.4°C | 0.5% | 13.8hPa | 2.5V | 18:12:15 | 02:10:51 | 00:00:00 | |
| DL1XH-west | 2026-09-06 00:49:53 | 58.16730 | 7.63626 | 252° | 22km/h | 29200m | 5.7m/s | -47.4°C | 0.5% | 13.9hPa | 2.5V | 18:12:15 | 02:10:43 | 00:00:00 | |
| DM0DOS-11 | 2026-09-06 00:49:51 | 58.16741 | 7.63657 | 236° | 18km/h | 29180m | 5.8m/s | -47.4°C | 3.4% | 13.9hPa | 2.5V | 08:30:00 | 02:10:39 | 00:00:00 | |
| AA1-15 | 2026-09-06 00:49:49 | 58.16741 | 7.63657 | 236° | 18km/h | 29180m | 5.8m/s | -47.4°C | 0.5% | 13.9hPa | 2.5V | 18:12:15 | 02:10:39 | 00:00:00 | |
| DL1XH1-15 | 2026-09-06 00:49:49 | 58.16750 | 7.63685 | 226° | 20km/h | 29158m | 5.7m/s | -47.4°C | 3.3% | 13.9hPa | 2.5V | 08:30:00 | 02:10:35 | 00:00:00 | |
| DL1XH-15 | 2026-09-06 00:49:42 | 58.16784 | 7.63754 | 212° | 31km/h | 29115m | 4.9m/s | -47.4°C | 3.2% | 14hPa | 2.5V | 08:30:00 | 02:10:27 | 00:00:00 | |
| DL1XH-west | 2026-09-06 00:49:42 | 58.16761 | 7.63709 | 238° | 22km/h | 29142m | 5.5m/s | -47.4°C | 0.5% | 14hPa | 2.5V | 18:12:15 | 02:10:32 | 00:00:00 | |
| DM0DOS-11 | 2026-09-06 00:49:41 | 58.16772 | 7.63737 | 224° | 27km/h | 29127m | 6.2m/s | -47.4°C | 3.3% | 14hPa | 2.5V | 08:30:00 | 02:10:29 | 00:00:00 | |
| AA1-15 | 2026-09-06 00:49:38 | 58.16777 | 7.63746 | 217° | 31km/h | 29121m | 5.3m/s | -47.4°C | 0.4% | 14hPa | 2.5V | 18:12:15 | 02:10:28 | 00:00:00 | |
| DL1XH-15 | 2026-09-06 00:49:32 | 58.16840 | 7.63823 | 214° | 29km/h | 29060m | 4.3m/s | -47.4°C | 3.2% | 14.1hPa | 2.5V | 08:30:00 | 02:10:17 | 00:00:00 | |
| DL1XH-west | 2026-09-06 00:49:32 | 58.16810 | 7.63791 | 214° | 24km/h | 29089m | 6.2m/s | -47.4°C | 0.4% | 14.1hPa | 2.5V | 18:12:15 | 02:10:22 | 00:00:00 | |
| DM0DOS-11 | 2026-09-06 00:49:31 | 58.16828 | 7.63809 | 207° | 29km/h | 29072m | 5.3m/s | -47.4°C | 3.1% | 14.1hPa | 2.5V | 08:30:00 | 02:10:19 | 00:00:00 | |
| AA1-15 | 2026-09-06 00:49:28 | 58.16834 | 7.63816 | 211° | 29km/h | 29066m | 6m/s | -47.4°C | 0.4% | 14.1hPa | 2.5V | 18:12:15 | 02:10:18 | 00:00:00 | |
| DM0DOS-11 | 2026-09-06 00:49:21 | 58.16903 | 7.63873 | 209° | 31km/h | 29016m | 4.4m/s | -48.1°C | 3.3% | 14.2hPa | 2.5V | 08:30:00 | 02:10:09 | 00:00:00 | |
| DL1XH-west | 2026-09-06 00:49:21 | 58.16888 | 7.63860 | 198° | 35km/h | 29027m | 6m/s | -47.8°C | 0.4% | 14.2hPa | 2.5V | 18:12:15 | 02:10:11 | 00:00:00 | |
| AA1-15 | 2026-09-06 00:49:18 | 58.16917 | 7.63888 | 209° | 35km/h | 29005m | 6.1m/s | -48.5°C | 0.6% | 14.3hPa | 2.5V | 18:12:15 | 02:10:07 | 00:00:00 | |
| DL1XH-15 | 2026-09-06 00:49:16 | 58.16954 | 7.63924 | 207° | 42km/h | 28983m | 5.7m/s | -48.7°C | 3.5% | 14.3hPa | 2.5V | 08:30:00 | 02:10:03 | 00:00:00 | |
| DL1XH1-15 | 2026-09-06 00:49:13 | 58.16964 | 7.63933 | 204° | 42km/h | 28977m | 4m/s | -48.6°C | 3.5% | 14.3hPa | 2.5V | 08:30:00 | 02:10:02 | 00:00:00 | |
| DL1XH-west | 2026-09-06 00:49:11 | 58.16973 | 7.63940 | 198° | 40km/h | 28973m | 4.3m/s | -48.6°C | 0.6% | 14.3hPa | 2.5V | 18:12:15 | 02:10:01 | 00:00:00 | |
| AA1-15 | 2026-09-06 00:49:07 | 58.17014 | 7.63946 | 174° | 38km/h | 28952m | 4.7m/s | -48.6°C | 0.5% | 14.4hPa | 2.5V | 18:12:15 | 02:09:57 | 00:00:00 | |
| DL1XH1-15 | 2026-09-06 00:49:05 | 58.17049 | 7.63946 | 190° | 27km/h | 28924m | 6.7m/s | -48.6°C | 3.5% | 14.4hPa | 2.5V | 08:30:00 | 02:09:52 | 00:00:00 | |
| DL1XH-15 | 2026-09-06 00:49:04 | 58.17074 | 7.63954 | 187° | 38km/h | 28907m | 5.3m/s | -48.7°C | 3.5% | 14.5hPa | 2.5V | 08:30:00 | 02:09:49 | 00:00:00 | |
| DL1XH-west | 2026-09-06 00:48:59 | 58.17074 | 7.63954 | 188° | 38km/h | 28907m | 5.3m/s | -48.7°C | 0.6% | 14.5hPa | 2.5V | 18:12:15 | 02:09:49 | 00:00:00 | |
| AA1-15 | 2026-09-06 00:48:56 | 58.17101 | 7.63960 | 184° | 35km/h | 28890m | 5.3m/s | -48.8°C | 0.6% | 14.6hPa | 2.5V | 18:12:15 | 02:09:46 | 00:00:00 | |
| DL1XH1-15 | 2026-09-06 00:48:53 | 58.17135 | 7.63956 | 165° | 29km/h | 28867m | 5.5m/s | -48.8°C | 3.5% | 14.6hPa | 2.5V | 08:30:00 | 02:09:42 | 00:00:00 | |
| DM0DOS-11 | 2026-09-06 00:48:51 | 58.17156 | 7.63940 | 157° | 18km/h | 28845m | 5.5m/s | -48.8°C | 3.5% | 14.6hPa | 2.5V | 08:30:00 | 02:09:38 | 00:00:00 | |
| DL1XH-west | 2026-09-06 00:48:49 | 58.17151 | 7.63943 | 151° | 18km/h | 28850m | 4.4m/s | -48.8°C | 0.6% | 14.6hPa | 2.5V | 18:12:15 | 02:09:39 | 00:00:00 | |
| AA1-15 | 2026-09-06 00:48:46 | 58.17167 | 7.63934 | 173° | 27km/h | 28833m | 6.3m/s | -48.8°C | 0.6% | 14.7hPa | 2.5V | 18:12:15 | 02:09:36 | 00:00:00 | |
| DL1XH-west | 2026-09-06 00:48:38 | 58.17225 | 7.63935 | 173° | 29km/h | 28787m | 4.7m/s | -48.7°C | 0.6% | 14.8hPa | 2.5V | 18:12:15 | 02:09:28 | 00:00:00 | |
| DL1XH-15 | 2026-09-06 00:48:36 | 58.17262 | 7.63911 | 165° | 31km/h | 28747m | 4.7m/s | -48.7°C | 3.4% | 14.8hPa | 2.5V | 08:30:00 | 02:09:21 | 00:00:00 | |
| AA1-15 | 2026-09-06 00:48:34 | 58.17245 | 7.63924 | 151° | 18km/h | 28764m | 4.9m/s | -48.6°C | 0.6% | 14.8hPa | 2.5V | 18:12:15 | 02:09:24 | 00:00:00 | |
| DL1XH-west | 2026-09-06 00:48:27 | 58.17296 | 7.63904 | 180° | 35km/h | 28725m | 5.5m/s | -48.9°C | 0.6% | 14.9hPa | 2.5V | 18:12:15 | 02:09:17 | 00:00:00 | |
| AA1-15 | 2026-09-06 00:48:23 | 58.17333 | 7.63907 | 188° | 33km/h | 28702m | 6m/s | -48.9°C | 0.7% | 15hPa | 2.5V | 18:12:15 | 02:09:13 | 00:00:00 | |
| DL1XH-west | 2026-09-06 00:48:17 | 58.17372 | 7.63914 | 169° | 29km/h | 28666m | 5.2m/s | -48.9°C | 0.6% | 15hPa | 2.5V | 18:12:15 | 02:09:07 | 00:00:00 | |
| DL1XH-15 | 2026-09-06 00:48:16 | 58.17413 | 7.63897 | 168° | 27km/h | 28632m | 4.8m/s | -48.8°C | 3.5% | 0hPa | 2.5V | 08:30:00 | 02:09:01 | 00:00:00 | |
| AA1-15 | 2026-09-06 00:48:12 | 58.17407 | 7.63900 | 169° | 27km/h | 28638m | 6.9m/s | -48.8°C | 0.6% | 15.1hPa | 2.5V | 18:12:15 | 02:09:02 | 00:00:00 | |
| DL1XH-15 | 2026-09-06 00:48:06 | 58.17463 | 7.63899 | 172° | 27km/h | 28578m | 5.7m/s | -48.8°C | 3.5% | 0hPa | 2.5V | 08:30:00 | 02:08:51 | 00:00:00 | |
| DL1XH-west | 2026-09-06 00:48:06 | 58.17437 | 7.63898 | 208° | 13km/h | 28605m | 4.2m/s | -48.8°C | 0.6% | 15.2hPa | 2.5V | 18:12:15 | 02:08:56 | 00:00:00 | |
| AA1-15 | 2026-09-06 00:48:02 | 58.17455 | 7.63901 | 173° | 27km/h | 28584m | 4.6m/s | -48.8°C | 0.6% | 15.2hPa | 2.4V | 18:12:15 | 02:08:52 | 00:00:00 | |
| DM0DOS-11 | 2026-09-06 00:47:55 | 58.17506 | 7.63892 | 175° | 24km/h | 28539m | 4.6m/s | -48.8°C | 3.5% | 15.4hPa | 2.5V | 08:30:00 | 02:08:44 | 00:00:00 | |
| DL1XH-west | 2026-09-06 00:47:54 | 58.17506 | 7.63892 | 176° | 24km/h | 28539m | 4.6m/s | -48.8°C | 0.6% | 15.4hPa | 2.5V | 18:12:15 | 02:08:44 | 00:00:00 | |
| DL1XH-15 | 2026-09-06 00:47:53 | 58.17536 | 7.63899 | 174° | 24km/h | 28504m | 4.8m/s | -48.9°C | 3.5% | 0hPa | 2.5V | 08:30:00 | 02:08:38 | 00:00:00 | |
| AA1-15 | 2026-09-06 00:47:52 | 58.17517 | 7.63894 | 193° | 20km/h | 28527m | 6m/s | -48.8°C | 0.6% | 15.4hPa | 2.5V | 18:12:15 | 02:08:42 | 00:00:00 | |
| DM0DOS-11 | 2026-09-06 00:47:48 | 58.17562 | 7.63892 | 171° | 18km/h | 28478m | 4.4m/s | -48.9°C | 3.5% | 15.5hPa | 2.5V | 08:30:00 | 02:08:33 | 00:00:00 | |
| AA1-15 | 2026-09-06 00:47:42 | 58.17578 | 7.63883 | 157° | 26km/h | 28461m | 5.2m/s | -48.9°C | 0.6% | 15.6hPa | 2.5V | 18:12:15 | 02:08:30 | 00:00:00 | |
| DM0DOS-11 | 2026-09-06 00:47:36 | 58.17615 | 7.63862 | 158° | 15km/h | 28417m | 5.3m/s | -49°C | 3.5% | 15.6hPa | 2.5V | 08:30:00 | 02:08:22 | 00:00:00 | |
| DL1XH-west | 2026-09-06 00:47:32 | 58.17615 | 7.63862 | 159° | 15km/h | 28417m | 5.4m/s | -49°C | 0.5% | 15.6hPa | 2.5V | 18:12:15 | 02:08:22 | 00:00:00 | |
| AA1-15 | 2026-09-06 00:47:31 | 58.17618 | 7.63859 | 162° | 13km/h | 28410m | 6.3m/s | -49°C | 0.6% | 15.7hPa | 2.6V | 18:12:15 | 02:08:21 | 00:00:00 | |
| DM0DOS-11 | 2026-09-06 00:47:26 | 58.17673 | 7.63828 | 169° | 20km/h | 28362m | 4.8m/s | -49°C | 3.5% | 15.8hPa | 2.5V | 08:30:00 | 02:08:12 | 00:00:00 | |
| DL1XH1-15 | 2026-09-06 00:47:24 | 58.17687 | 7.63821 | 159° | 18km/h | 28345m | 5.3m/s | -49.1°C | 3.5% | 15.8hPa | 2.5V | 08:30:00 | 02:08:09 | 00:00:00 | |
| DL1XH-west | 2026-09-06 00:47:21 | 58.17678 | 7.63826 | 165° | 18km/h | 28357m | 5.8m/s | -49.1°C | 0.6% | 15.8hPa | 2.5V | 18:12:15 | 02:08:11 | 00:00:00 | |
| AA1-15 | 2026-09-06 00:47:20 | 58.17687 | 7.63821 | 160° | 18km/h | 28346m | 5.3m/s | -49.1°C | 0.6% | 15.8hPa | 2.5V | 18:12:15 | 02:08:09 | 00:00:00 | |
| DL1XH-west | 2026-09-06 00:47:09 | 58.17731 | 7.63778 | 152° | 24km/h | 28290m | 5.4m/s | -49.5°C | 0.7% | 16hPa | 2.5V | 18:12:15 | 02:07:59 | 00:00:00 | |
| AA1-15 | 2026-09-06 00:47:09 | 58.17737 | 7.63774 | 159° | 22km/h | 28285m | 4.9m/s | -49.6°C | 0.7% | 16hPa | 2.5V | 18:12:15 | 02:07:58 | 00:00:00 | |
| DL1XH1-15 | 2026-09-06 00:47:09 | 58.17736 | 7.63774 | 158° | 22km/h | 28285m | 4.9m/s | -49.5°C | 3.6% | 15.9hPa | 2.5V | 08:30:00 | 02:07:58 | 00:00:00 | |
| DM0DOS-11 | 2026-09-06 00:47:06 | 58.17753 | 7.63762 | 159° | 24km/h | 28268m | 4.8m/s | -49.5°C | 3.6% | 16hPa | 2.5V | 08:30:00 | 02:07:55 | 00:00:00 | |
| DM0DOS-11 | 2026-09-06 00:46:59 | 58.17805 | 7.63701 | 145° | 26km/h | 28201m | 6.5m/s | -49.4°C | 3.6% | 16.1hPa | 2.5V | 08:30:00 | 02:07:43 | 00:00:00 | |
| DL1XH-west | 2026-09-06 00:46:59 | 58.17779 | 7.63743 | 142° | 20km/h | 28235m | 6.2m/s | -49.5°C | 0.7% | 16.1hPa | 2.5V | 18:12:15 | 02:07:49 | 00:00:00 | |
| DL1XH1-15 | 2026-09-06 00:46:59 | 58.17783 | 7.63736 | 136° | 24km/h | 28229m | 5.5m/s | -49.4°C | 3.6% | 16.1hPa | 2.5V | 08:30:00 | 02:07:48 | 00:00:00 | |
| AA1-15 | 2026-09-06 00:46:58 | 58.17783 | 7.63736 | 137° | 24km/h | 28229m | 5.5m/s | -49.4°C | 0.7% | 16.1hPa | 2.5V | 18:12:15 | 02:07:48 | 00:00:00 | |
| DL1XH1-15 | 2026-09-06 00:46:49 | 58.17836 | 7.63672 | 165° | 24km/h | 28173m | 5.5m/s | -49.4°C | 3.5% | 16.2hPa | 2.5V | 08:30:00 | 02:07:38 | 00:00:00 | |
| AA1-15 | 2026-09-06 00:46:48 | 58.17836 | 7.63672 | 166° | 24km/h | 28173m | 5.5m/s | -49.4°C | 0.6% | 16.2hPa | 2.5V | 18:12:15 | 02:07:38 | 00:00:00 | |
| DL1XH1-15 | 2026-09-06 00:46:43 | 58.17895 | 7.63599 | 137° | 33km/h | 28111m | 6.1m/s | -49.8°C | 3.6% | 16.4hPa | 2.5V | 08:30:00 | 02:07:27 | 00:00:00 | |
| AA1-15 | 2026-09-06 00:46:38 | 58.17895 | 7.63599 | 138° | 33km/h | 28111m | 6.1m/s | -49.8°C | 0.7% | 16.4hPa | 2.5V | 18:12:15 | 02:07:27 | 00:00:00 | |
| DL1XH-15 | 2026-09-06 00:46:32 | 58.17963 | 7.63543 | 143° | 27km/h | 28054m | 6m/s | 0°C | 0% | 0hPa | 2.5V | 08:30:00 | 02:07:17 | 00:00:00 | |
| DL1XH1-15 | 2026-09-06 00:46:29 | 58.17957 | 7.63550 | 150° | 26km/h | 28060m | 5m/s | -50.1°C | 3.7% | 16.5hPa | 2.5V | 08:30:00 | 02:07:18 | 00:00:00 | |
| DL1XH-west | 2026-09-06 00:46:27 | 58.17968 | 7.63534 | 141° | 31km/h | 28048m | 5.9m/s | -50.1°C | 0.7% | 16.5hPa | 2.5V | 18:12:15 | 02:07:16 | 00:00:00 | |
| AA1-15 | 2026-09-06 00:46:27 | 58.17962 | 7.63543 | 144° | 27km/h | 28054m | 6m/s | -50.1°C | 0.7% | 16.6hPa | 2.5V | 18:12:15 | 02:07:17 | 00:00:00 | |
| DM0DOS-11 | 2026-09-06 00:46:26 | 58.17987 | 7.63505 | 143° | 29km/h | 28031m | 5.9m/s | -50.1°C | 3.7% | 16.6hPa | 2.5V | 08:30:00 | 02:07:13 | 00:00:00 | |
| DL1XH-15 | 2026-09-06 00:46:22 | 58.18032 | 7.63464 | 155° | 35km/h | 27998m | 6.2m/s | 0°C | 0% | 0hPa | 2.5V | 08:30:00 | 02:07:07 | 00:00:00 | |
| DL1XH1-15 | 2026-09-06 00:46:19 | 58.18023 | 7.63471 | 156° | 37km/h | 28003m | 4.8m/s | -50°C | 3.6% | 16.7hPa | 2.5V | 08:30:00 | 02:07:08 | 00:00:00 | |
| DM0DOS-11 | 2026-09-06 00:46:18 | 58.18060 | 7.63423 | 133° | 40km/h | 27975m | 5.5m/s | -49.9°C | 3.6% | 16.8hPa | 2.5V | 08:30:00 | 02:07:03 | 00:00:00 | |
| DL1XH-west | 2026-09-06 00:46:17 | 58.18032 | 7.63464 | 156° | 37km/h | 27998m | 6.2m/s | -50°C | 0.7% | 16.7hPa | 2.5V | 18:12:15 | 02:07:07 | 00:00:00 | |
| AA1-15 | 2026-09-06 00:46:16 | 58.18039 | 7.63456 | 150° | 33km/h | 27992m | 5.3m/s | -50°C | 0.7% | 16.7hPa | 2.5V | 18:12:15 | 02:07:06 | 00:00:00 | |
| DL1XH1-15 | 2026-09-06 00:46:12 | 58.18089 | 7.63365 | 148° | 22km/h | 27948m | 5.1m/s | -50°C | 3.6% | 16.8hPa | 2.5V | 08:30:00 | 02:06:58 | 00:00:00 | |
| AA1-15 | 2026-09-06 00:46:06 | 58.18100 | 7.63355 | 156° | 27km/h | 27937m | 5.7m/s | -50.1°C | 0.7% | 16.8hPa | 2.5V | 18:12:15 | 02:06:56 | 00:00:00 | |
| DM0DOS-11 | 2026-09-06 00:46:00 | 58.18173 | 7.63235 | 126° | 26km/h | 27864m | 5.5m/s | -50.4°C | 3.7% | 17hPa | 2.5V | 08:30:00 | 02:06:43 | 00:00:00 | |
| DL1XH-west | 2026-09-06 00:45:55 | 58.18173 | 7.63235 | 126° | 26km/h | 27864m | 5.5m/s | -50.4°C | 0.7% | 17hPa | 2.5V | 18:12:15 | 02:06:43 | 00:00:00 | |
| AA1-15 | 2026-09-06 00:45:55 | 58.18182 | 7.63215 | 135° | 29km/h | 27852m | 5.4m/s | -50.5°C | 0.6% | 17.1hPa | 2.5V | 18:12:15 | 02:06:41 | 00:00:00 | |
| DM0DOS-11 | 2026-09-06 00:45:48 | 58.18225 | 7.63144 | 135° | 38km/h | 27813m | 4.4m/s | -50.7°C | 3.7% | 17.2hPa | 2.6V | 08:30:00 | 02:06:34 | 00:00:00 | |
| DL1XH-15 | 2026-09-06 00:45:44 | 58.18239 | 7.63106 | 106° | 26km/h | 27797m | 6m/s | 0°C | 0% | 0hPa | 2.5V | 08:30:00 | 02:06:31 | 00:00:00 | |
| DL1XH-west | 2026-09-06 00:45:43 | 58.18232 | 7.63131 | 129° | 35km/h | 27808m | 5.1m/s | -50.8°C | 0.7% | 17.2hPa | 2.5V | 18:12:15 | 02:06:33 | 00:00:00 | |
| DL1XH1-15 | 2026-09-06 00:45:43 | 58.18243 | 7.63069 | 105° | 29km/h | 27781m | 6m/s | -51°C | 3.8% | 17.3hPa | 2.6V | 08:30:00 | 02:06:28 | 00:00:00 | |
| AA1-15 | 2026-09-06 00:45:42 | 58.18236 | 7.63118 | 120° | 31km/h | 27803m | 6.8m/s | -50.8°C | 0.7% | 17.2hPa | 2.5V | 18:12:15 | 02:06:32 | 00:00:00 | |
| DM0DOS-11 | 2026-09-06 00:45:37 | 58.18261 | 7.63017 | 134° | 35km/h | 27758m | 5.9m/s | -51.1°C | 3.8% | 17.3hPa | 2.5V | 08:30:00 | 02:06:24 | 00:00:00 | |
| DL1XH-15 | 2026-09-06 00:45:36 | 58.18280 | 7.62980 | 129° | 37km/h | 27743m | 6.4m/s | 0°C | 0% | 0hPa | 2.5V | 08:30:00 | 02:06:21 | 00:00:00 | |
| DL1XH-west | 2026-09-06 00:45:33 | 58.18274 | 7.62993 | 133° | 35km/h | 27748m | 4.5m/s | -51.2°C | 0.8% | 17.3hPa | 2.5V | 18:12:15 | 02:06:22 | 00:00:00 | |
| DL1XH1-15 | 2026-09-06 00:45:33 | 58.18293 | 7.62933 | 108° | 37km/h | 27726m | 6.1m/s | -51.2°C | 3.8% | 17.4hPa | 2.5V | 08:30:00 | 02:06:18 | 00:00:00 | |
| AA1-15 | 2026-09-06 00:45:31 | 58.18279 | 7.62980 | 130° | 37km/h | 27743m | 6.4m/s | -51.2°C | 0.7% | 17.4hPa | 2.5V | 18:12:15 | 02:06:21 | 00:00:00 | |
| DM0DOS-11 | 2026-09-06 00:45:27 | 58.18300 | 7.62877 | 109° | 29km/h | 27702m | 6.3m/s | -51.2°C | 3.7% | 17.4hPa | 2.5V | 08:30:00 | 02:06:14 | 00:00:00 | |
| DL1XH1-15 | 2026-09-06 00:45:23 | 58.18330 | 7.62806 | 132° | 37km/h | 27669m | 5.7m/s | -51.4°C | 3.8% | 17.5hPa | 2.5V | 08:30:00 | 02:06:08 | 00:00:00 | |
| AA1-15 | 2026-09-06 00:45:21 | 58.18313 | 7.62840 | 130° | 31km/h | 27685m | 6.9m/s | -51.3°C | 0.8% | 17.5hPa | 2.5V | 18:12:15 | 02:06:11 | 00:00:00 | |
| DJ2DS-15 | 2026-09-06 00:45:20 | 58.18324 | 7.62818 | 134° | 31km/h | 27675m | 4.6m/s | -51.4°C | 1.1% | 17.6hPa | 2.5V | 00:00:00 | 00:00:00 | 00:00:00 | |
| DM0DOS-11 | 2026-09-06 00:45:17 | 58.18352 | 7.62744 | 115° | 37km/h | 27647m | 6.5m/s | -51.7°C | 3.9% | 17.6hPa | 2.5V | 08:30:00 | 02:06:04 | 00:00:00 | |
| DL1XH1-15 | 2026-09-06 00:45:13 | 58.18366 | 7.62651 | 109° | 38km/h | 27615m | 5.3m/s | -52.1°C | 3.9% | 17.7hPa | 2.5V | 08:30:00 | 02:05:58 | 00:00:00 | |
| AA1-15 | 2026-09-06 00:45:11 | 58.18359 | 7.62700 | 101° | 31km/h | 27632m | 5.7m/s | -51.9°C | 0.9% | 17.6hPa | 2.5V | 18:12:15 | 02:06:01 | 00:00:00 | |
| DL1XH1-15 | 2026-09-06 00:45:03 | 58.18401 | 7.62465 | 88° | 35km/h | 27557m | 6m/s | -52.4°C | 4% | 17.8hPa | 2.5V | 08:30:00 | 02:05:48 | 00:00:00 | |
| AA1-15 | 2026-09-06 00:44:59 | 58.18400 | 7.62482 | 92° | 35km/h | 27563m | 5.6m/s | -52.4°C | 0.9% | 17.8hPa | 2.5V | 18:12:15 | 02:05:49 | 00:00:00 | |
| DL1XH1-15 | 2026-09-06 00:44:53 | 58.18411 | 7.62301 | 98° | 37km/h | 27501m | 6.3m/s | -52.6°C | 4.1% | 18hPa | 2.5V | 08:30:00 | 02:05:38 | 00:00:00 | |
| AA1-15 | 2026-09-06 00:44:48 | 58.18411 | 7.62301 | 99° | 37km/h | 27502m | 6.3m/s | -52.6°C | 1% | 18hPa | 2.5V | 18:12:15 | 02:05:38 | 00:00:00 | |
| DM0DOS-11 | 2026-09-06 00:44:46 | 58.18410 | 7.62245 | 75° | 29km/h | 27478m | 5.8m/s | -52.5°C | 4.1% | 18.1hPa | 2.5V | 08:30:00 | 02:05:34 | 00:00:00 | |
| DJ2DS-15 | 2026-09-06 00:44:44 | 58.18408 | 7.62232 | 69° | 27km/h | 27473m | 4.8m/s | -52.5°C | 1.2% | 18.1hPa | 2.6V | 00:00:00 | 00:00:00 | 00:00:00 | |
| DL1XH1-15 | 2026-09-06 00:44:43 | 58.18398 | 7.62178 | 84° | 27km/h | 27445m | 6.1m/s | -52.4°C | 4% | 18.2hPa | 2.6V | 08:30:00 | 02:05:28 | 00:00:00 | |
| AA1-15 | 2026-09-06 00:44:38 | 58.18398 | 7.62178 | 84° | 27km/h | 27445m | 6.1m/s | -52.4°C | 1% | 18.2hPa | 2.6V | 18:12:15 | 02:05:28 | 00:00:00 | |
| DL1XH-west | 2026-09-06 00:44:38 | 58.18398 | 7.62164 | 89° | 31km/h | 27439m | 4.9m/s | -52.4°C | 1% | 18.2hPa | 2.5V | 18:12:15 | 02:05:27 | 00:00:00 | |
| DM0DOS-11 | 2026-09-06 00:44:36 | 58.18397 | 7.62111 | 80° | 24km/h | 27419m | 4.1m/s | -52.5°C | 4% | 18.3hPa | 2.5V | 08:30:00 | 02:05:23 | 00:00:00 | |
| DL1XH1-15 | 2026-09-06 00:44:32 | 58.18387 | 7.62055 | 61° | 24km/h | 27392m | 5.5m/s | -52.6°C | 4.1% | 18.3hPa | 2.5V | 08:30:00 | 02:05:18 | 00:00:00 | |
| AA1-15 | 2026-09-06 00:44:27 | 58.18384 | 7.62047 | 53° | 20km/h | 27386m | 6.5m/s | -52.6°C | 1% | 18.3hPa | 2.5V | 18:12:15 | 02:05:17 | 00:00:00 | |
| DM0DOS-11 | 2026-09-06 00:44:26 | 58.18372 | 7.62016 | 60° | 24km/h | 27363m | 4.8m/s | -52.6°C | 4.1% | 18.4hPa | 2.5V | 08:30:00 | 02:05:13 | 00:00:00 | |
| DM0DOS-11 | 2026-09-06 00:44:16 | 58.18340 | 7.61934 | 22° | 18km/h | 27309m | 6m/s | -52.7°C | 4.2% | 18.6hPa | 2.5V | 08:30:00 | 02:05:03 | 00:00:00 | |
| AA1-15 | 2026-09-06 00:44:16 | 58.18351 | 7.61953 | 56° | 22km/h | 27325m | 4.5m/s | -52.7°C | 1% | 18.5hPa | 2.5V | 18:12:15 | 02:05:06 | 00:00:00 | |
| DL1XH1-15 | 2026-09-06 00:44:08 | 58.18289 | 7.61894 | 19° | 16km/h | 27261m | 5m/s | -52.6°C | 4.1% | 18.7hPa | 2.5V | 08:30:00 | 02:04:54 | 00:00:00 | |
| DJ2DS-15 | 2026-09-06 00:44:08 | 58.18306 | 7.61906 | 27° | 29km/h | 27277m | 6.0m/s | -52.6°C | 1.2% | 18.7hPa | 2.6V | 00:00:00 | 00:00:00 | 00:00:00 | |
| DM0DOS-11 | 2026-09-06 00:44:06 | 58.18286 | 7.61890 | 30° | 15km/h | 27255m | 6.5m/s | -52.6°C | 4.1% | 18.7hPa | 2.6V | 08:30:00 | 02:04:53 | 00:00:00 | |
| AA1-15 | 2026-09-06 00:44:06 | 58.18300 | 7.61900 | 22° | 26km/h | 27272m | 6.1m/s | -52.6°C | 1% | 18.7hPa | 2.5V | 18:12:15 | 02:04:56 | 00:00:00 | |
| DL1XH1-15 | 2026-09-06 00:43:58 | 58.18251 | 7.61871 | 15° | 22km/h | 27206m | 4.2m/s | -52.6°C | 4.1% | 18.9hPa | 2.5V | 08:30:00 | 02:04:44 | 00:00:00 | |
| DM0DOS-11 | 2026-09-06 00:43:55 | 58.18246 | 7.61869 | 9° | 22km/h | 27201m | 5.3m/s | -52.6°C | 4.1% | 18.9hPa | 2.5V | 08:30:00 | 02:04:43 | 00:00:00 | |
| AA1-15 | 2026-09-06 00:43:55 | 58.18257 | 7.61874 | 16° | 22km/h | 27210m | 4.5m/s | -52.7°C | 1% | 18.9hPa | 2.5V | 18:12:15 | 02:04:45 | 00:00:00 | |
| DL1XH1-15 | 2026-09-06 00:43:48 | 58.18217 | 7.61867 | 3° | 11km/h | 27150m | 5.5m/s | -52.5°C | 4.1% | 19hPa | 2.5V | 08:30:00 | 02:04:34 | 00:00:00 | |
| DM0DOS-11 | 2026-09-06 00:43:45 | 58.18214 | 7.61867 | 355° | 11km/h | 27145m | 4.8m/s | -52.5°C | 4.1% | 19.1hPa | 2.5V | 08:30:00 | 02:04:33 | 00:00:00 | |
| DL1XH-west | 2026-09-06 00:43:44 | 58.18217 | 7.61867 | 3° | 11km/h | 27150m | 5.5m/s | -52.5°C | 1% | 19hPa | 2.5V | 18:12:15 | 02:04:34 | 00:00:00 | |
| DL1XH1-15 | 2026-09-06 00:43:38 | 58.18196 | 7.61875 | 115° | 5km/h | 27094m | 5m/s | -52.4°C | 4% | 19.2hPa | 2.5V | 08:30:00 | 02:04:24 | 00:00:00 | |
| DM0DOS-11 | 2026-09-06 00:43:35 | 58.18197 | 7.61873 | 122° | 5km/h | 27089m | 5.6m/s | -52.4°C | 4.1% | 19.2hPa | 2.5V | 08:30:00 | 02:04:23 | 00:00:00 | |
| DL1XH-west | 2026-09-06 00:43:33 | 58.18197 | 7.61873 | 123° | 5km/h | 27089m | 5.6m/s | -52.4°C | 1% | 19.2hPa | 2.5V | 18:12:15 | 02:04:23 | 00:00:00 | |
| DJ2DS-15 | 2026-09-06 00:43:32 | 58.18197 | 7.61871 | 165° | 0km/h | 27078m | 5.0m/s | -52.3°C | 1.2% | 19.3hPa | 2.5V | 00:00:00 | 00:00:00 | 00:00:00 | |
| DL1XH-15 | 2026-09-06 00:43:31 | 58.18198 | 7.61872 | 285° | 4km/h | 27050m | 6.3m/s | 0°C | 0% | 0hPa | 2.5V | 00:00:00 | 02:04:16 | 00:00:00 | |
| DL1XH1-15 | 2026-09-06 00:43:27 | 58.18197 | 7.61879 | 127° | 4km/h | 27028m | 4.8m/s | -52.4°C | 4.1% | 19.4hPa | 2.5V | 08:30:00 | 02:04:12 | 00:00:00 | |
| DM0DOS-11 | 2026-09-06 00:43:25 | 58.18196 | 7.61879 | 269° | 2km/h | 27034m | 6.3m/s | -52.4°C | 4.1% | 19.4hPa | 2.5V | 08:30:00 | 02:04:13 | 00:00:00 | |
| DL1XH-west | 2026-09-06 00:43:23 | 58.18197 | 7.61879 | 269° | 2km/h | 27034m | 6.3m/s | -52.4°C | 1% | 19.4hPa | 2.5V | 18:12:15 | 02:04:13 | 00:00:00 | |
| AA1-15 | 2026-09-06 00:43:22 | 58.18197 | 7.61879 | 128° | 4km/h | 27028m | 4.8m/s | -52.5°C | 1% | 19.4hPa | 2.5V | 18:12:15 | 02:04:12 | 00:00:00 | |
| DM0DOS-11 | 2026-09-06 00:43:15 | 58.18206 | 7.61853 | 145° | 13km/h | 26979m | 5.5m/s | -52.5°C | 4.1% | 19.5hPa | 2.5V | 08:30:00 | 02:04:03 | 00:00:00 | |
| AA1-15 | 2026-09-06 00:43:12 | 58.18209 | 7.61850 | 156° | 13km/h | 26973m | 5.6m/s | -52.4°C | 0.9% | 19.6hPa | 2.6V | 18:12:15 | 02:04:02 | 00:00:00 | |
| DM0DOS-11 | 2026-09-06 00:43:05 | 58.18219 | 7.61803 | 82° | 16km/h | 26925m | 6.3m/s | -52.3°C | 4% | 19.7hPa | 2.5V | 08:30:00 | 02:03:53 | 00:00:00 | |
| AA1-15 | 2026-09-06 00:43:01 | 58.18219 | 7.61787 | 101° | 16km/h | 26914m | 4.4m/s | -52.4°C | 1% | 19.8hPa | 2.6V | 18:12:15 | 02:03:51 | 00:00:00 | |
| DL1XH1-15 | 2026-09-06 00:42:58 | 58.18238 | 7.61737 | 119° | 16km/h | 26872m | 6.3m/s | -52.5°C | 4% | 19.9hPa | 2.5V | 08:30:00 | 02:03:43 | 00:00:00 | |
| DM0DOS-11 | 2026-09-06 00:42:55 | 58.18239 | 7.61731 | 102° | 13km/h | 26866m | 5.4m/s | -52.5°C | 4.1% | 19.9hPa | 2.5V | 08:30:00 | 02:03:42 | 00:00:00 | |
| DL1XH-west | 2026-09-06 00:42:51 | 58.18240 | 7.61725 | 93° | 13km/h | 26861m | 4.7m/s | -52.6°C | 1% | 19.9hPa | 2.5V | 18:12:15 | 02:03:41 | 00:00:00 | |
| AA1-15 | 2026-09-06 00:42:49 | 58.18239 | 7.61711 | 86° | 16km/h | 26849m | 5.7m/s | -52.6°C | 1% | 19.9hPa | 2.5V | 18:12:15 | 02:03:39 | 00:00:00 | |
| DL1XH1-15 | 2026-09-06 00:42:48 | 58.18244 | 7.61666 | 118° | 26km/h | 26814m | 5.2m/s | -52.6°C | 4.1% | 20hPa | 2.5V | 08:30:00 | 02:03:33 | 00:00:00 | |
| DL1XH-west | 2026-09-06 00:42:41 | 58.18251 | 7.61645 | 125° | 26km/h | 26805m | 5.8m/s | -52.7°C | 1% | 20.1hPa | 2.5V | 18:12:15 | 02:03:31 | 00:00:00 | |
| AA1-15 | 2026-09-06 00:42:38 | 58.18259 | 7.61622 | 113° | 16km/h | 26788m | 5.4m/s | -52.7°C | 1% | 20.1hPa | 2.6V | 18:12:15 | 02:03:28 | 00:00:00 | |
| DM0DOS-11 | 2026-09-06 00:42:35 | 58.18258 | 7.61568 | 74° | 16km/h | 26753m | 4.8m/s | -52.8°C | 4.1% | 20.2hPa | 2.5V | 08:30:00 | 02:03:22 | 00:00:00 | |
| DL1XH1-15 | 2026-09-06 00:42:34 | 58.18259 | 7.61576 | 75° | 18km/h | 26758m | 5.8m/s | -52.8°C | 4.2% | 20.2hPa | 2.5V | 08:30:00 | 02:03:23 | 00:00:00 | |
| DL1XH-west | 2026-09-06 00:42:30 | 58.18257 | 7.61551 | 98° | 18km/h | 26741m | 5.8m/s | -52.8°C | 1.1% | 20.3hPa | 2.5V | 18:12:15 | 02:03:20 | 00:00:00 | |
| DL1XH1-15 | 2026-09-06 00:42:28 | 58.18263 | 7.61513 | 81° | 16km/h | 26702m | 5.9m/s | -52.7°C | 4.1% | 20.4hPa | 2.5V | 08:30:00 | 02:03:13 | 00:00:00 | |
| AA1-15 | 2026-09-06 00:42:26 | 58.18263 | 7.61527 | 116° | 7km/h | 26719m | 5.4m/s | -52.7°C | 1.1% | 20.4hPa | 2.5V | 18:12:15 | 02:03:16 | 00:00:00 | |
| DL1XH-west | 2026-09-06 00:42:20 | 58.18257 | 7.61481 | 66° | 13km/h | 26681m | 4.8m/s | -52.9°C | 1.1% | 20.5hPa | 2.5V | 18:12:15 | 02:03:09 | 00:00:00 | |
| DL1XH1-15 | 2026-09-06 00:42:18 | 58.18265 | 7.61462 | 165° | 7km/h | 26648m | 6.8m/s | -52.8°C | 4.3% | 20.6hPa | 2.5V | 08:30:00 | 02:03:03 | 00:00:00 | |
| AA1-15 | 2026-09-06 00:42:14 | 58.18263 | 7.61464 | 153° | 9km/h | 26654m | 4.7m/s | -52.9°C | 1.1% | 0hPa | 2.5V | 18:12:15 | 02:03:04 | 00:00:00 | |
| DL1XH-west | 2026-09-06 00:42:08 | 58.18262 | 7.61462 | 14° | 7km/h | 26618m | 5.4m/s | -52.7°C | 1.1% | 20.7hPa | 2.4V | 18:12:15 | 02:02:58 | 00:00:00 | |
| AA1-15 | 2026-09-06 00:42:04 | 58.18255 | 7.61464 | 347° | 4km/h | 26595m | 6.7m/s | -52.6°C | 1% | 0hPa | 2.6V | 18:12:15 | 02:02:54 | 00:00:00 | |
| DL1XH-west | 2026-09-06 00:41:58 | 58.18263 | 7.61477 | 253° | 9km/h | 26562m | 5.2m/s | -52.3°C | 1% | 20.9hPa | 2.5V | 18:12:15 | 02:02:48 | 00:00:00 | |
| DM0DOS-11 | 2026-09-06 00:41:56 | 58.18261 | 7.61488 | 321° | 9km/h | 26539m | 6.5m/s | -52.2°C | 4.1% | 21hPa | 2.5V | 08:30:00 | 02:02:44 | 00:00:00 | |
| DL1XH1-15 | 2026-09-06 00:41:56 | 58.18258 | 7.61496 | 256° | 4km/h | 26521m | 6.1m/s | -52.1°C | 4.1% | 21hPa | 2.5V | 08:30:00 | 02:02:41 | 00:00:00 | |
| AA1-15 | 2026-09-06 00:41:52 | 58.18258 | 7.61493 | 314° | 7km/h | 26527m | 6m/s | -52.1°C | 1% | 0hPa | 2.5V | 18:12:15 | 02:02:42 | 00:00:00 | |
| DL1XH-west | 2026-09-06 00:41:47 | 58.18267 | 7.61510 | 233° | 18km/h | 26499m | 5.2m/s | -52.1°C | 1% | 21.1hPa | 2.5V | 18:12:15 | 02:02:37 | 00:00:00 | |
| DL1XH1-15 | 2026-09-06 00:41:42 | 58.18277 | 7.61544 | 272° | 11km/h | 26466m | 6.8m/s | -52°C | 4.1% | 21.1hPa | 2.5V | 08:30:00 | 02:02:31 | 00:00:00 | |
| AA1-15 | 2026-09-06 00:41:41 | 58.18277 | 7.61544 | 273° | 11km/h | 26466m | 6.8m/s | -52.1°C | 1% | 0hPa | 2.5V | 18:12:15 | 02:02:31 | 00:00:00 | |
| DL1XH-west | 2026-09-06 00:41:36 | 58.18280 | 7.61578 | 223° | 18km/h | 26438m | 5m/s | -52°C | 1% | 21.3hPa | 2.5V | 18:12:15 | 02:02:26 | 00:00:00 | |
| DM0DOS-11 | 2026-09-06 00:41:36 | 58.18288 | 7.61590 | 220° | 24km/h | 26426m | 6.2m/s | -52°C | 4.1% | 21.3hPa | 2.6V | 08:30:00 | 02:02:24 | 00:00:00 | |
| DL1XH1-15 | 2026-09-06 00:41:36 | 58.18301 | 7.61611 | 212° | 20km/h | 26411m | 6.1m/s | -52°C | 4.1% | 21.4hPa | 2.5V | 08:30:00 | 02:02:21 | 00:00:00 | |
| AA1-15 | 2026-09-06 00:41:28 | 58.18311 | 7.61620 | 216° | 9km/h | 26394m | 6.2m/s | 0°C | 0% | 0hPa | 2.5V | 18:12:15 | 02:02:18 | 00:00:00 | |
| DM0DOS-11 | 2026-09-06 00:41:25 | 58.18317 | 7.61641 | 210° | 11km/h | 26367m | 5.8m/s | -51.8°C | 4.1% | 21.5hPa | 2.6V | 08:30:00 | 02:02:13 | 00:00:00 | |
| DL1XH-west | 2026-09-06 00:41:24 | 58.18316 | 7.61637 | 234° | 11km/h | 26374m | 6m/s | -51.8°C | 1% | 21.5hPa | 2.5V | 18:12:15 | 02:02:14 | 00:00:00 | |
| DL1XH1-15 | 2026-09-06 00:41:22 | 58.18323 | 7.61646 | 203° | 15km/h | 26356m | 6.3m/s | -51.7°C | 4.1% | 21.6hPa | 2.5V | 08:30:00 | 02:02:11 | 00:00:00 | |
| AA1-15 | 2026-09-06 00:41:17 | 58.18336 | 7.61654 | 175° | 11km/h | 26334m | 5.3m/s | 0°C | 0% | 0hPa | 2.6V | 18:12:15 | 02:02:07 | 00:00:00 | |
| DL1XH1-15 | 2026-09-06 00:41:16 | 58.18341 | 7.61654 | 113° | 2km/h | 26300m | 5.9m/s | -51.4°C | 3.9% | 21.7hPa | 2.5V | 08:30:00 | 02:02:01 | 00:00:00 | |
| DM0DOS-11 | 2026-09-06 00:41:15 | 58.18341 | 7.61653 | 287° | 2km/h | 26312m | 5.1m/s | -51.4°C | 3.9% | 21.7hPa | 2.5V | 08:30:00 | 02:02:03 | 00:00:00 | |
| DL1XH-west | 2026-09-06 00:41:14 | 58.18341 | 7.61652 | 233° | 2km/h | 26317m | 5.3m/s | -51.5°C | 0.9% | 21.7hPa | 2.5V | 18:12:15 | 02:02:04 | 00:00:00 | |
| AA1-15 | 2026-09-06 00:41:06 | 58.18349 | 7.61657 | 179° | 11km/h | 26271m | 6.5m/s | 0°C | 0% | 0hPa | 2.6V | 18:12:15 | 02:01:56 | 00:00:00 | |
| DM0DOS-11 | 2026-09-06 00:41:04 | 58.18357 | 7.61652 | 161° | 9km/h | 26255m | 6.1m/s | -51.3°C | 4% | 21.9hPa | 2.5V | 08:30:00 | 02:01:53 | 00:00:00 | |
| DL1XH-west | 2026-09-06 00:41:04 | 58.18354 | 7.61654 | 155° | 11km/h | 26261m | 4.5m/s | -51.3°C | 0.9% | 21.9hPa | 2.5V | 18:12:15 | 02:01:54 | 00:00:00 | |
| DM0DOS-11 | 2026-09-06 00:40:57 | 58.18357 | 7.61620 | 118° | 11km/h | 26197m | 5.5m/s | -51.1°C | 4% | 22.1hPa | 2.6V | 08:30:00 | 02:01:43 | 00:00:00 | |
| AA1-15 | 2026-09-06 00:40:54 | 58.18356 | 7.61625 | 115° | 9km/h | 26203m | 6m/s | 0°C | 0% | 0hPa | 2.6V | 18:12:15 | 02:01:44 | 00:00:00 | |
| DL1XH-west | 2026-09-06 00:40:53 | 58.18357 | 7.61620 | 118° | 11km/h | 26197m | 5.6m/s | -51.1°C | 0.9% | 22.1hPa | 2.6V | 18:12:15 | 02:01:43 | 00:00:00 | |
| DL1XH1-15 | 2026-09-06 00:40:51 | 58.18365 | 7.61594 | 97° | 13km/h | 26158m | 4.6m/s | -51°C | 3.9% | 22.2hPa | 2.5V | 08:30:00 | 02:01:36 | 00:00:00 | |
| DL1XH-west | 2026-09-06 00:40:42 | 58.18367 | 7.61573 | 103° | 9km/h | 26135m | 5.7m/s | -50.9°C | 0.9% | 22.3hPa | 2.5V | 18:12:15 | 02:01:32 | 00:00:00 | |
| AA1-15 | 2026-09-06 00:40:32 | 58.18373 | 7.61529 | 87° | 13km/h | 26081m | 5.6m/s | 0°C | 0% | 0hPa | 2.5V | 18:12:15 | 02:01:22 | 00:00:00 | |
| DL1XH1-15 | 2026-09-06 00:40:31 | 58.18373 | 7.61498 | 96° | 15km/h | 26049m | 5.3m/s | -50.8°C | 3.8% | 22.6hPa | 2.5V | 08:30:00 | 02:01:16 | 00:00:00 | |
| DL1XH-west | 2026-09-06 00:40:31 | 58.18373 | 7.61524 | 85° | 9km/h | 26075m | 5.7m/s | -50.7°C | 0.8% | 22.5hPa | 2.6V | 18:12:15 | 02:01:21 | 00:00:00 | |
| DL1XH-west | 2026-09-06 00:40:20 | 58.18371 | 7.61456 | 66° | 18km/h | 26016m | 4.4m/s | -51°C | 0.9% | 22.7hPa | 2.5V | 18:12:15 | 02:01:10 | 00:00:00 | |
| DL1XH-west | 2026-09-06 00:40:09 | 58.18360 | 7.61384 | 101° | 11km/h | 25956m | 5.6m/s | -50.9°C | 0.9% | 22.9hPa | 2.5V | 18:12:15 | 02:00:59 | 00:00:00 | |
| DM0DOS-11 | 2026-09-06 00:40:02 | 58.18355 | 7.61338 | 116° | 9km/h | 25891m | 6.3m/s | -50.8°C | 3.9% | 23.1hPa | 2.6V | 08:30:00 | 02:00:47 | 00:00:00 | |
| DL1XH-west | 2026-09-06 00:39:58 | 58.18354 | 7.61342 | 103° | 7km/h | 25896m | 4.6m/s | -50.8°C | 0.8% | 23.1hPa | 2.5V | 18:12:15 | 02:00:48 | 00:00:00 | |
| DL1XH1-15 | 2026-09-06 00:39:57 | 58.18360 | 7.61324 | 28° | 5km/h | 25865m | 4.2m/s | -50.8°C | 3.9% | 23.2hPa | 2.5V | 08:30:00 | 02:00:42 | 00:00:00 | |
| DL1XH-west | 2026-09-06 00:39:48 | 58.18351 | 7.61312 | 34° | 15km/h | 25843m | 4.4m/s | -50.7°C | 0.9% | 23.3hPa | 2.5V | 18:12:15 | 02:00:38 | 00:00:00 | |
| DL1XH1-15 | 2026-09-06 00:39:42 | 58.18343 | 7.61296 | 211° | 4km/h | 25807m | 6m/s | -50.5°C | 3.8% | 23.4hPa | 2.5V | 08:30:00 | 02:00:31 | 00:00:00 | |
| DL1XH-west | 2026-09-06 00:39:38 | 58.18344 | 7.61302 | 266° | 4km/h | 25791m | 6.2m/s | -50.3°C | 0.9% | 23.5hPa | 2.6V | 18:12:15 | 02:00:28 | 00:00:00 | |
| DL1XH1-15 | 2026-09-06 00:39:36 | 58.18335 | 7.61306 | 19° | 4km/h | 25754m | 6m/s | -50.1°C | 3.8% | 23.7hPa | 2.5V | 08:30:00 | 02:00:21 | 00:00:00 | |
| DL1XH-west | 2026-09-06 00:39:27 | 58.18336 | 7.61300 | 96° | 2km/h | 25733m | 5.4m/s | -50°C | 0.8% | 23.7hPa | 2.5V | 18:12:15 | 02:00:17 | 00:00:00 | |
| DM0DOS-11 | 2026-09-06 00:39:24 | 58.18336 | 7.61297 | 108° | 2km/h | 25712m | 3.7m/s | -49.9°C | 3.8% | 23.8hPa | 2.5V | 08:30:00 | 02:00:13 | 00:00:00 | |
| DL1XH1-15 | 2026-09-06 00:39:22 | 58.18336 | 7.61297 | 316° | 4km/h | 25701m | 5.6m/s | -49.8°C | 3.8% | 23.9hPa | 2.6V | 08:30:00 | 02:00:11 | 00:00:00 | |
| DL1XH-west | 2026-09-06 00:39:17 | 58.18333 | 7.61301 | 127° | 2km/h | 25680m | 5m/s | -49.7°C | 0.8% | 23.9hPa | 2.5V | 18:12:15 | 02:00:07 | 00:00:00 | |
| DL1XH1-15 | 2026-09-06 00:39:16 | 58.18338 | 7.61307 | 237° | 4km/h | 25646m | 5.9m/s | -49.4°C | 3.7% | 24hPa | 2.6V | 08:30:00 | 02:00:01 | 00:00:00 | |
| DM0DOS-11 | 2026-09-06 00:39:14 | 58.18336 | 7.61303 | 245° | 5km/h | 25658m | 4.8m/s | -49.5°C | 3.7% | 24hPa | 2.5V | 08:30:00 | 02:00:03 | 00:00:00 | |
| DM0DOS-11 | 2026-09-06 00:39:07 | 58.18336 | 7.61322 | 221° | 5km/h | 25602m | 6.1m/s | -49°C | 3.6% | 24.2hPa | 2.5V | 08:30:00 | 01:59:53 | 00:00:00 | |
| DL1XH-west | 2026-09-06 00:39:06 | 58.18335 | 7.61319 | 304° | 4km/h | 25619m | 6.1m/s | -49.2°C | 0.7% | 24.1hPa | 2.5V | 18:12:15 | 01:59:56 | 00:00:00 | |
| DL1XH1-15 | 2026-09-06 00:39:02 | 58.18340 | 7.61328 | 213° | 13km/h | 25591m | 4.7m/s | -48.9°C | 3.5% | 24.2hPa | 2.5V | 08:30:00 | 01:59:51 | 00:00:00 | |
| DM0DOS-11 | 2026-09-06 00:38:54 | 58.18344 | 7.61350 | 306° | 11km/h | 25550m | 6.2m/s | -48.9°C | 3.5% | 24.4hPa | 2.5V | 08:30:00 | 01:59:43 | 00:00:00 | |
| DL1XH1-15 | 2026-09-06 00:38:54 | 58.18346 | 7.61370 | 226° | 11km/h | 25524m | 4m/s | -49°C | 3.5% | 24.5hPa | 2.6V | 08:30:00 | 01:59:38 | 00:00:00 | |
| DL1XH-west | 2026-09-06 00:38:54 | 58.18346 | 7.61346 | 309° | 13km/h | 25555m | 4.4m/s | -48.8°C | 0.6% | 24.4hPa | 2.6V | 18:12:15 | 01:59:44 | 00:00:00 | |
| DM0DOS-11 | 2026-09-06 00:38:49 | 58.18354 | 7.61369 | 105° | 4km/h | 25498m | 5.1m/s | -49.1°C | 3.5% | 24.6hPa | 2.5V | 08:30:00 | 01:59:33 | 00:00:00 | |
| DL1XH-west | 2026-09-06 00:38:43 | 58.18355 | 7.61369 | 106° | 4km/h | 25498m | 5.1m/s | -49.1°C | 0.6% | 24.6hPa | 2.5V | 18:12:15 | 01:59:33 | 00:00:00 | |
| DL1XH1-15 | 2026-09-06 00:38:33 | 58.18355 | 7.61316 | 60° | 15km/h | 25420m | 5.9m/s | -49.6°C | 3.5% | 24.9hPa | 2.5V | 08:30:00 | 01:59:18 | 00:00:00 | |
| DL1XH-west | 2026-09-06 00:38:32 | 58.18360 | 7.61334 | 102° | 11km/h | 25441m | 4.6m/s | -49.3°C | 0.6% | 24.8hPa | 2.5V | 18:12:15 | 01:59:22 | 00:00:00 | |
| DL1XH1-15 | 2026-09-06 00:38:23 | 58.18379 | 7.61273 | 165° | 20km/h | 25369m | 5.2m/s | -50°C | 3.7% | 25.1hPa | 2.4V | 08:30:00 | 01:59:08 | 00:00:00 | |
| DL1XH-west | 2026-09-06 00:38:22 | 58.18358 | 7.61285 | 161° | 16km/h | 25391m | 5.6m/s | -49.8°C | 0.7% | 25hPa | 2.5V | 18:12:15 | 01:59:12 | 00:00:00 | |
| DL1XH1-15 | 2026-09-06 00:38:13 | 58.18429 | 7.61218 | 154° | 33km/h | 25319m | 5.8m/s | -50°C | 3.7% | 25.3hPa | 2.6V | 08:30:00 | 01:58:58 | 00:00:00 | |
| DL1XH-west | 2026-09-06 00:38:11 | 58.18412 | 7.61234 | 152° | 20km/h | 25334m | 4m/s | -50.1°C | 0.7% | 25.2hPa | 2.5V | 18:12:15 | 01:59:01 | 00:00:00 | |
| DJ2DS-15 | 2026-09-06 00:38:07 | 58.18446 | 7.61203 | 155° | 38km/h | 25308m | 4.7m/s | -50.1°C | 1.1% | 25.3hPa | 2.5V | 00:00:00 | 00:00:00 | 00:00:00 | |
| DL1XH1-15 | 2026-09-06 00:38:03 | 58.18507 | 7.61146 | 139° | 35km/h | 25268m | 5.2m/s | -50.2°C | 3.8% | 25.5hPa | 2.5V | 08:30:00 | 01:58:48 | 00:00:00 | |
| DL1XH-west | 2026-09-06 00:38:01 | 58.18486 | 7.61173 | 154° | 31km/h | 25283m | 5.6m/s | -50.2°C | 0.8% | 25.4hPa | 2.5V | 18:12:15 | 01:58:51 | 00:00:00 | |
| DM0DOS-11 | 2026-09-06 00:37:58 | 58.18541 | 7.61087 | 140° | 46km/h | 25242m | 4.3m/s | -50.3°C | 3.8% | 25.6hPa | 2.5V | 08:30:00 | 01:58:43 | 00:00:00 | |
| DL1XH1-15 | 2026-09-06 00:37:53 | 58.18583 | 7.61034 | 148° | 37km/h | 25219m | 4.7m/s | -50.2°C | 3.8% | 25.7hPa | 2.5V | 08:30:00 | 01:58:38 | 00:00:00 | |
| DL1XH-west | 2026-09-06 00:37:50 | 58.18567 | 7.61052 | 150° | 38km/h | 25227m | 5.1m/s | -50.2°C | 0.8% | 25.6hPa | 2.5V | 18:12:15 | 01:58:40 | 00:00:00 | |
| DM0DOS-11 | 2026-09-06 00:37:48 | 58.18616 | 7.60978 | 127° | 31km/h | 25193m | 4.8m/s | -50.1°C | 3.8% | 25.8hPa | 2.5V | 08:30:00 | 01:58:33 | 00:00:00 | |
| DL1XH1-15 | 2026-09-06 00:37:43 | 58.18647 | 7.60910 | 137° | 44km/h | 25169m | 4.3m/s | -49.9°C | 3.7% | 25.9hPa | 2.5V | 08:30:00 | 01:58:28 | 00:00:00 | |
| DL1XH-west | 2026-09-06 00:37:39 | 58.18640 | 7.60925 | 135° | 44km/h | 25173m | 4.1m/s | -50°C | 0.8% | 25.9hPa | 2.6V | 18:12:15 | 01:58:29 | 00:00:00 | |
| DM0DOS-11 | 2026-09-06 00:37:38 | 58.18682 | 7.60859 | 135° | 29km/h | 25143m | 5.6m/s | -49.8°C | 3.7% | 26hPa | 2.6V | 08:30:00 | 01:58:23 | 00:00:00 | |
| DL1XH1-15 | 2026-09-06 00:37:33 | 58.18699 | 7.60797 | 106° | 29km/h | 25116m | 5m/s | -49.7°C | 3.7% | 26.1hPa | 2.6V | 08:30:00 | 01:58:18 | 00:00:00 | |
| DJ2DS-15 | 2026-09-06 00:37:31 | 58.18697 | 7.60810 | 107° | 27km/h | 25122m | 5.6m/s | -49.7°C | 1.1% | 26.1hPa | 2.6V | 00:00:00 | 00:00:00 | 00:00:00 | |
| DM0DOS-11 | 2026-09-06 00:37:28 | 58.18719 | 7.60719 | 123° | 35km/h | 25092m | 5.5m/s | -49.6°C | 3.7% | 26.2hPa | 2.6V | 08:30:00 | 01:58:13 | 00:00:00 | |
| DL1XH-west | 2026-09-06 00:37:28 | 58.18699 | 7.60797 | 106° | 29km/h | 25117m | 5m/s | -49.7°C | 0.7% | 26.1hPa | 2.6V | 18:12:15 | 01:58:18 | 00:00:00 | |
| DL1XH1-15 | 2026-09-06 00:37:23 | 58.18739 | 7.60660 | 120° | 29km/h | 25066m | 4.7m/s | -49.6°C | 3.7% | 26.3hPa | 2.5V | 08:30:00 | 01:58:08 | 00:00:00 | |
| DL1XH-west | 2026-09-06 00:37:18 | 58.18739 | 7.60660 | 121° | 31km/h | 25066m | 4.7m/s | -49.7°C | 0.7% | 26.3hPa | 2.5V | 18:12:15 | 01:58:08 | 00:00:00 | |
| DL1XH1-15 | 2026-09-06 00:37:13 | 58.18765 | 7.60512 | 93° | 38km/h | 25010m | 5.4m/s | -49.7°C | 3.7% | 26.5hPa | 2.5V | 08:30:00 | 01:57:58 | 00:00:00 | |
| DL1XH-west | 2026-09-06 00:37:08 | 58.18765 | 7.60512 | 94° | 38km/h | 25010m | 5.4m/s | -49.7°C | 0.7% | 26.5hPa | 2.5V | 18:12:15 | 01:57:58 | 00:00:00 | |
| DL1XH1-15 | 2026-09-06 00:37:03 | 58.18779 | 7.60355 | 109° | 31km/h | 24955m | 5.1m/s | -49.6°C | 3.6% | 26.7hPa | 2.5V | 08:30:00 | 01:57:48 | 00:00:00 | |
| DL1XH-west | 2026-09-06 00:36:57 | 58.18782 | 7.60340 | 107° | 31km/h | 24949m | 6.3m/s | -49.6°C | 0.7% | 26.8hPa | 2.5V | 18:12:15 | 01:57:47 | 00:00:00 | |
| DM0DOS-11 | 2026-09-06 00:36:53 | 58.18804 | 7.60210 | 122° | 31km/h | 24899m | 5.9m/s | -49.5°C | 3.6% | 27hPa | 2.6V | 08:30:00 | 01:57:38 | 00:00:00 | |
| DL1XH-west | 2026-09-06 00:36:46 | 58.18814 | 7.60184 | 128° | 33km/h | 24887m | 5m/s | -49.4°C | 0.7% | 27hPa | 2.4V | 18:12:15 | 01:57:36 | 00:00:00 | |
| DL1XH1-15 | 2026-09-06 00:36:43 | 58.18842 | 7.60079 | 119° | 35km/h | 24840m | 6.5m/s | -49.4°C | 3.6% | 27.2hPa | 2.6V | 08:30:00 | 01:57:28 | 00:00:00 | |
| DM0DOS-11 | 2026-09-06 00:36:38 | 58.18867 | 7.60021 | 136° | 46km/h | 24817m | 5.3m/s | -49.3°C | 3.6% | 27.3hPa | 2.5V | 08:30:00 | 01:57:24 | 00:00:00 | |
| DL1XH-west | 2026-09-06 00:36:36 | 58.18853 | 7.60051 | 129° | 38km/h | 24829m | 5.3m/s | -49.3°C | 0.7% | 27.3hPa | 2.5V | 18:12:15 | 01:57:26 | 00:00:00 | |
| DL1XH1-15 | 2026-09-06 00:36:33 | 58.18906 | 7.59940 | 116° | 33km/h | 24785m | 6.1m/s | -49.3°C | 3.6% | 27.4hPa | 2.5V | 08:30:00 | 01:57:18 | 00:00:00 | |
| DM0DOS-11 | 2026-09-06 00:36:28 | 58.18922 | 7.59882 | 124° | 35km/h | 24761m | 4.2m/s | -49.3°C | 3.5% | 27.6hPa | 2.5V | 08:30:00 | 01:57:14 | 00:00:00 | |
| DL1XH-west | 2026-09-06 00:36:25 | 58.18917 | 7.59896 | 118° | 33km/h | 24767m | 6.2m/s | -49.3°C | 0.6% | 27.5hPa | 2.5V | 18:12:15 | 01:57:15 | 00:00:00 | |
| DL1XH1-15 | 2026-09-06 00:36:23 | 58.18969 | 7.59797 | 140° | 38km/h | 24728m | 5.5m/s | -49.4°C | 3.5% | 27.7hPa | 2.5V | 08:30:00 | 01:57:08 | 00:00:00 | |
| DM0DOS-11 | 2026-09-06 00:36:18 | 58.18991 | 7.59745 | 116° | 37km/h | 24704m | 5.2m/s | -49.5°C | 3.6% | 27.8hPa | 2.5V | 08:30:00 | 01:57:04 | 00:00:00 | |
| DL1XH-west | 2026-09-06 00:36:14 | 58.18991 | 7.59745 | 116° | 37km/h | 24704m | 5.2m/s | -49.5°C | 0.7% | 27.8hPa | 2.5V | 18:12:15 | 01:57:04 | 00:00:00 | |
| DL1XH1-15 | 2026-09-06 00:36:13 | 58.19020 | 7.59653 | 128° | 46km/h | 24670m | 6.1m/s | -49.7°C | 3.6% | 27.9hPa | 2.5V | 08:30:00 | 01:56:58 | 00:00:00 | |
| DM0DOS-11 | 2026-09-06 00:36:08 | 58.19048 | 7.59585 | 123° | 44km/h | 24647m | 5.8m/s | -49.8°C | 3.6% | 28hPa | 2.6V | 08:30:00 | 01:56:54 | 00:00:00 | |
| DL1XH-west | 2026-09-06 00:36:04 | 58.19048 | 7.59585 | 124° | 44km/h | 24647m | 5.8m/s | -49.8°C | 0.7% | 28hPa | 2.6V | 18:12:15 | 01:56:54 | 00:00:00 | |
| DL1XH1-15 | 2026-09-06 00:36:03 | 58.19074 | 7.59476 | 109° | 37km/h | 24611m | 5.5m/s | -49.9°C | 3.5% | 28.2hPa | 2.6V | 08:30:00 | 01:56:48 | 00:00:00 | |
| DM0DOS-11 | 2026-09-06 00:35:58 | 58.19090 | 7.59405 | 114° | 42km/h | 24588m | 6.8m/s | -50.2°C | 0% | 28.3hPa | 2.5V | 08:30:00 | 01:56:44 | 00:00:00 | |
| DL1XH-west | 2026-09-06 00:35:53 | 58.19094 | 7.59386 | 113° | 40km/h | 24581m | 5.4m/s | -50.3°C | 0.8% | 28.3hPa | 2.6V | 18:12:15 | 01:56:43 | 00:00:00 | |
| DM0DOS-11 | 2026-09-06 00:35:48 | 58.19116 | 7.59212 | 95° | 38km/h | 24529m | 6.4m/s | -50.4°C | 0% | 28.6hPa | 2.5V | 08:30:00 | 01:56:34 | 00:00:00 | |
| DL1XH-west | 2026-09-06 00:35:43 | 58.19117 | 7.59193 | 97° | 40km/h | 24523m | 4.9m/s | -50.4°C | 0.8% | 28.6hPa | 2.5V | 18:12:15 | 01:56:33 | 00:00:00 | |
| DL1XH-west | 2026-09-06 00:35:32 | 58.19124 | 7.58974 | 93° | 38km/h | 24463m | 5.6m/s | -50.6°C | 0.8% | 28.8hPa | 2.5V | 18:12:15 | 01:56:22 | 00:00:00 | |
| DM0DOS-11 | 2026-09-06 00:35:28 | 58.19124 | 7.58833 | 78° | 40km/h | 24418m | 5.5m/s | -50.5°C | 0% | 29.1hPa | 2.5V | 08:30:00 | 01:56:14 | 00:00:00 | |
| DL1XH1-15 | 2026-09-06 00:35:22 | 58.19117 | 7.58775 | 76° | 38km/h | 24403m | 5.7m/s | -50.5°C | 3.7% | 29.1hPa | 2.5V | 08:30:00 | 01:56:11 | 00:00:00 | |
| DL1XH-west | 2026-09-06 00:35:21 | 58.19117 | 7.58775 | 77° | 38km/h | 24403m | 5.7m/s | -50.5°C | 0.7% | 29.1hPa | 2.5V | 18:12:15 | 01:56:11 | 00:00:00 | |
| DM0DOS-11 | 2026-09-06 00:35:18 | 58.19106 | 7.58656 | 72° | 31km/h | 24365m | 4.7m/s | -50.5°C | 0% | 29.3hPa | 2.6V | 08:30:00 | 01:56:04 | 00:00:00 | |
| AA1-15 | 2026-09-06 00:35:18 | 58.19112 | 7.58722 | 83° | 40km/h | 24386m | 5.5m/s | -50.5°C | 0.7% | 29.2hPa | 2.5V | 18:12:15 | 01:56:08 | 00:00:00 | |
| DL1XH-west | 2026-09-06 00:35:10 | 58.19093 | 7.58580 | 73° | 31km/h | 24339m | 5.8m/s | -50.9°C | 0.9% | 29.4hPa | 2.5V | 18:12:15 | 01:55:59 | 00:00:00 | |
| AA1-15 | 2026-09-06 00:35:06 | 58.19086 | 7.58539 | 73° | 31km/h | 24323m | 5.7m/s | -51°C | 0.9% | 29.5hPa | 2.5V | 18:12:15 | 01:55:56 | 00:00:00 | |
| DM0DOS-11 | 2026-09-06 00:34:58 | 58.19067 | 7.58409 | 60° | 20km/h | 24260m | 5.4m/s | -51°C | 0% | 29.8hPa | 2.5V | 08:30:00 | 01:55:44 | 00:00:00 | |
| DL1XH-west | 2026-09-06 00:34:57 | 58.19072 | 7.58429 | 72° | 16km/h | 24276m | 5.6m/s | -51°C | 0.8% | 29.7hPa | 2.6V | 18:12:15 | 01:55:47 | 00:00:00 | |
| AA1-15 | 2026-09-06 00:34:55 | 58.19069 | 7.58416 | 56° | 16km/h | 24265m | 5.1m/s | -51°C | 0.8% | 29.7hPa | 2.6V | 18:12:15 | 01:55:45 | 00:00:00 | |
| DL1XH1-15 | 2026-09-06 00:34:48 | 58.19063 | 7.58323 | 98° | 26km/h | 24220m | 4.9m/s | -50.9°C | 3.8% | 29.9hPa | 2.6V | 08:30:00 | 01:55:36 | 00:00:00 | |
| DM0DOS-11 | 2026-09-06 00:34:48 | 58.19065 | 7.58301 | 102° | 20km/h | 24209m | 4.9m/s | -51°C | 0% | 30hPa | 2.5V | 08:30:00 | 01:55:34 | 00:00:00 | |
| DL1XH-west | 2026-09-06 00:34:47 | 58.19062 | 7.58336 | 97° | 27km/h | 24225m | 4.7m/s | -51°C | 0.8% | 29.9hPa | 2.5V | 18:12:15 | 01:55:37 | 00:00:00 | |
| AA1-15 | 2026-09-06 00:34:44 | 58.19065 | 7.58301 | 102° | 20km/h | 24209m | 4.9m/s | -51°C | 0.8% | 30hPa | 2.5V | 18:12:15 | 01:55:34 | 00:00:00 | |
| DM0DOS-11 | 2026-09-06 00:34:38 | 58.19073 | 7.58201 | 111° | 33km/h | 24158m | 6m/s | -51.3°C | 0% | 30.2hPa | 2.6V | 08:30:00 | 01:55:24 | 00:00:00 | |
| DL1XH-west | 2026-09-06 00:34:36 | 58.19069 | 7.58229 | 102° | 27km/h | 24168m | 4.6m/s | -51.3°C | 0.9% | 30.2hPa | 2.5V | 18:12:15 | 01:55:26 | 00:00:00 | |
| AA1-15 | 2026-09-06 00:34:32 | 58.19081 | 7.58174 | 121° | 33km/h | 24148m | 3.9m/s | -51.3°C | 0.9% | 0hPa | 2.5V | 18:12:15 | 01:55:22 | 00:00:00 | |
| DJ2DS-15 | 2026-09-06 00:34:30 | 58.19091 | 7.58133 | 113° | 29km/h | 24134m | 4.2m/s | -51.3°C | 1.2% | 30.4hPa | 2.6V | 00:00:00 | 00:00:00 | 00:00:00 | |
| DL1XH1-15 | 2026-09-06 00:34:28 | 58.19106 | 7.58071 | 99° | 24km/h | 24104m | 4m/s | -51.6°C | 3.9% | 30.5hPa | 2.6V | 08:30:00 | 01:55:13 | 00:00:00 | |
| DM0DOS-11 | 2026-09-06 00:34:28 | 58.19105 | 7.58081 | 105° | 22km/h | 24109m | 5m/s | -51.5°C | 0% | 30.5hPa | 2.5V | 08:30:00 | 01:55:14 | 00:00:00 | |
| DL1XH-west | 2026-09-06 00:34:26 | 58.19100 | 7.58100 | 121° | 22km/h | 24119m | 4.2m/s | -51.3°C | 0.9% | 30.4hPa | 2.5V | 18:12:15 | 01:55:16 | 00:00:00 | |
| AA1-15 | 2026-09-06 00:34:20 | 58.19110 | 7.58039 | 108° | 22km/h | 24088m | 4m/s | -51.7°C | 0.9% | 0hPa | 2.5V | 18:12:15 | 01:55:10 | 00:00:00 | |
| DM0DOS-11 | 2026-09-06 00:34:18 | 58.19114 | 7.57977 | 90° | 16km/h | 24058m | 4.5m/s | -51.8°C | 0% | 30.7hPa | 2.5V | 08:30:00 | 01:55:04 | 00:00:00 | |
| DL1XH1-15 | 2026-09-06 00:34:18 | 58.19113 | 7.57969 | 81° | 16km/h | 24053m | 5m/s | -51.9°C | 4.1% | 30.7hPa | 2.5V | 08:30:00 | 01:55:03 | 00:00:00 | |
| DL1XH-west | 2026-09-06 00:34:15 | 58.19113 | 7.57986 | 92° | 20km/h | 24063m | 5.7m/s | -51.8°C | 0.9% | 30.7hPa | 2.5V | 18:12:15 | 01:55:05 | 00:00:00 | |
| AA1-15 | 2026-09-06 00:34:10 | 58.19109 | 7.57947 | 67° | 16km/h | 24037m | 4.8m/s | -51.9°C | 1% | 0hPa | 2.5V | 18:12:15 | 01:55:00 | 00:00:00 | |
| DM0DOS-11 | 2026-09-06 00:34:08 | 58.19107 | 7.57903 | 96° | 16km/h | 24005m | 6.3m/s | -51.8°C | 0% | 31hPa | 2.6V | 08:30:00 | 01:54:54 | 00:00:00 | |
| DL1XH1-15 | 2026-09-06 00:34:06 | 58.19108 | 7.57896 | 99° | 15km/h | 24000m | 4.8m/s | -51.8°C | 4.1% | 31hPa | 2.5V | 08:30:00 | 01:54:53 | 00:00:00 | |
| DL1XH-west | 2026-09-06 00:34:04 | 58.19107 | 7.57903 | 96° | 16km/h | 24005m | 6.3m/s | -51.8°C | 1% | 31hPa | 2.6V | 18:12:15 | 01:54:54 | 00:00:00 | |
| DL1XH1-15 | 2026-09-06 00:33:58 | 58.19106 | 7.57857 | 94° | 9km/h | 23947m | 4.6m/s | -51.6°C | 4% | 31.2hPa | 2.5V | 08:30:00 | 01:54:43 | 00:00:00 | |
| DM0DOS-11 | 2026-09-06 00:33:58 | 58.19106 | 7.57861 | 101° | 7km/h | 23952m | 5.5m/s | 0°C | 0% | 0hPa | 2.6V | 00:00:00 | 01:54:44 | 00:00:00 | |
| AA1-15 | 2026-09-06 00:33:56 | 58.19104 | 7.57866 | 126° | 5km/h | 23963m | 4.8m/s | -51.6°C | 0.9% | 0hPa | 2.5V | 18:12:15 | 01:54:46 | 00:00:00 | |
| DL1XH-west | 2026-09-06 00:33:54 | 58.19105 | 7.57861 | 102° | 7km/h | 23952m | 5.5m/s | -51.6°C | 0.9% | 31.2hPa | 2.6V | 18:12:15 | 01:54:44 | 00:00:00 | |
| DM0DOS-11 | 2026-09-06 00:33:47 | 58.19112 | 7.57830 | 184° | 11km/h | 23900m | 5.7m/s | 0°C | 0% | 0hPa | 2.5V | 00:00:00 | 01:54:34 | 00:00:00 | |
| DL1XH1-15 | 2026-09-06 00:33:46 | 58.19116 | 7.57831 | 184° | 15km/h | 23894m | 5.1m/s | -51.4°C | 4% | 31.5hPa | 2.6V | 08:30:00 | 01:54:33 | 00:00:00 | |
| DL1XH-west | 2026-09-06 00:33:43 | 58.19116 | 7.57831 | 185° | 15km/h | 23894m | 5.1m/s | -51.4°C | 1% | 31.5hPa | 2.6V | 18:12:15 | 01:54:33 | 00:00:00 | |
| DL1XH1-15 | 2026-09-06 00:33:38 | 58.19144 | 7.57822 | 182° | 13km/h | 23839m | 5.2m/s | -51°C | 4% | 31.7hPa | 2.5V | 08:30:00 | 01:54:23 | 00:00:00 | |
| DM0DOS-11 | 2026-09-06 00:33:37 | 58.19141 | 7.57823 | 161° | 7km/h | 23845m | 5.6m/s | 0°C | 0% | 0hPa | 2.5V | 00:00:00 | 01:54:24 | 00:00:00 | |
| AA1-15 | 2026-09-06 00:33:36 | 58.19138 | 7.57827 | 136° | 9km/h | 23855m | 5.7m/s | -51.2°C | 1% | 0hPa | 2.5V | 18:12:15 | 01:54:26 | 00:00:00 | |
| DL1XH-west | 2026-09-06 00:33:33 | 58.19144 | 7.57822 | 182° | 13km/h | 23839m | 5.2m/s | -51°C | 0.9% | 31.7hPa | 2.5V | 18:12:15 | 01:54:23 | 00:00:00 | |
| DL1XH1-15 | 2026-09-06 00:33:27 | 58.19199 | 7.57823 | 165° | 7km/h | 23779m | 5m/s | -50.5°C | 3.9% | 32.1hPa | 2.5V | 08:30:00 | 01:54:12 | 00:00:00 | |
| DL1XH-west | 2026-09-06 00:33:22 | 58.19199 | 7.57823 | 165° | 7km/h | 23780m | 5m/s | -50.5°C | 0.9% | 32.1hPa | 2.5V | 18:12:15 | 01:54:12 | 00:00:00 | |
| AA1-15 | 2026-09-06 00:33:21 | 58.19201 | 7.57823 | 195° | 4km/h | 23774m | 5.8m/s | -50.5°C | 0.9% | 0hPa | 2.6V | 18:12:15 | 01:54:11 | 00:00:00 | |
| DL1XH1-15 | 2026-09-06 00:33:17 | 58.19252 | 7.57840 | 183° | 27km/h | 23723m | 5m/s | -50.1°C | 3.8% | 32.3hPa | 2.5V | 08:30:00 | 01:54:02 | 00:00:00 | |
| DL1XH-west | 2026-09-06 00:33:11 | 58.19258 | 7.57840 | 180° | 22km/h | 23718m | 5.6m/s | -50°C | 0.8% | 32.4hPa | 2.5V | 18:12:15 | 01:54:01 | 00:00:00 | |
| AA1-15 | 2026-09-06 00:33:08 | 58.19269 | 7.57835 | 148° | 9km/h | 23700m | 4.5m/s | 0°C | 0% | 0hPa | 2.6V | 18:12:15 | 01:53:58 | 00:00:00 | |
| DL1XH1-15 | 2026-09-06 00:33:07 | 58.19292 | 7.57858 | 202° | 31km/h | 23670m | 5.9m/s | -49.5°C | 3.6% | 32.6hPa | 2.5V | 08:30:00 | 01:53:52 | 00:00:00 | |
| DL1XH-west | 2026-09-06 00:33:01 | 58.19300 | 7.57863 | 195° | 33km/h | 23664m | 4.8m/s | -49.5°C | 0.7% | 32.6hPa | 2.5V | 18:12:15 | 01:53:51 | 00:00:00 | |
| AA1-15 | 2026-09-06 00:32:58 | 58.19322 | 7.57872 | 190° | 27km/h | 23648m | 5.1m/s | 0°C | 0% | 0hPa | 2.6V | 18:12:15 | 01:53:48 | 00:00:00 | |
| DL1XH1-15 | 2026-09-06 00:32:52 | 58.19362 | 7.57880 | 203° | 18km/h | 23608m | 4.5m/s | -49.7°C | 3.5% | 32.9hPa | 2.6V | 08:30:00 | 01:53:41 | 00:00:00 | |
| DL1XH-west | 2026-09-06 00:32:49 | 58.19372 | 7.57888 | 197° | 24km/h | 23597m | 5.9m/s | -50°C | 0.8% | 33hPa | 2.5V | 18:12:15 | 01:53:39 | 00:00:00 | |
| AA1-15 | 2026-09-06 00:32:44 | 58.19408 | 7.57895 | 181° | 29km/h | 23570m | 4.7m/s | 0°C | 0% | 0hPa | 2.5V | 18:12:15 | 01:53:34 | 00:00:00 | |
| DL1XH1-15 | 2026-09-06 00:32:42 | 58.19439 | 7.57888 | 166° | 31km/h | 23549m | 5.5m/s | -50.3°C | 3.7% | 33.2hPa | 2.6V | 08:30:00 | 01:53:30 | 00:00:00 | |
| DL1XH-west | 2026-09-06 00:32:39 | 58.19446 | 7.57884 | 165° | 29km/h | 23543m | 5.7m/s | -50.3°C | 0.8% | 33.2hPa | 2.6V | 18:12:15 | 01:53:29 | 00:00:00 | |
| AA1-15 | 2026-09-06 00:32:34 | 58.19477 | 7.57849 | 135° | 35km/h | 23517m | 5.4m/s | 0°C | 0% | 0hPa | 2.6V | 18:12:15 | 01:53:24 | 00:00:00 | |
| DL1XH-west | 2026-09-06 00:32:28 | 58.19511 | 7.57779 | 134° | 35km/h | 23485m | 4.5m/s | -50.1°C | 0.7% | 33.5hPa | 2.5V | 18:12:15 | 01:53:18 | 00:00:00 | |
| DL1XH1-15 | 2026-09-06 00:32:27 | 58.19535 | 7.57742 | 144° | 31km/h | 23464m | 6.1m/s | -50.3°C | 3.6% | 33.6hPa | 2.6V | 08:30:00 | 01:53:14 | 00:00:00 | |
| AA1-15 | 2026-09-06 00:32:23 | 58.19541 | 7.57733 | 140° | 33km/h | 23458m | 5m/s | 0°C | 0% | 0hPa | 2.6V | 18:12:15 | 01:53:13 | 00:00:00 | |
| DL1XH-west | 2026-09-06 00:32:18 | 58.19568 | 7.57670 | 124° | 38km/h | 23433m | 5.5m/s | -50.5°C | 0.7% | 33.8hPa | 2.6V | 18:12:15 | 01:53:08 | 00:00:00 | |
| DL1XH1-15 | 2026-09-06 00:32:17 | 58.19594 | 7.57607 | 130° | 40km/h | 23413m | 6.2m/s | -50.7°C | 3.7% | 33.9hPa | 2.5V | 08:30:00 | 01:53:04 | 00:00:00 | |
| AA1-15 | 2026-09-06 00:32:12 | 58.19606 | 7.57581 | 131° | 31km/h | 23402m | 4.3m/s | 0°C | 0% | 0hPa | 2.6V | 18:12:15 | 01:53:02 | 00:00:00 | |
| DL1XH1-15 | 2026-09-06 00:32:08 | 58.19653 | 7.57455 | 116° | 53km/h | 23361m | 5.6m/s | -51.3°C | 3.9% | 34.2hPa | 2.5V | 08:30:00 | 01:52:54 | 00:00:00 | |
| DL1XH-west | 2026-09-06 00:32:07 | 58.19635 | 7.57512 | 124° | 42km/h | 23377m | 5.2m/s | -51.3°C | 0.9% | 34.1hPa | 2.6V | 18:12:15 | 01:52:57 | 00:00:00 | |
| AA1-15 | 2026-09-06 00:32:00 | 58.19671 | 7.57364 | 107° | 44km/h | 23341m | 4.2m/s | 0°C | 0% | 0hPa | 2.6V | 18:12:15 | 01:52:50 | 00:00:00 | |
| DL1XH1-15 | 2026-09-06 00:31:57 | 58.19693 | 7.57253 | 112° | 40km/h | 23311m | 5.2m/s | -51.3°C | 3.9% | 34.5hPa | 2.5V | 08:30:00 | 01:52:44 | 00:00:00 | |
| DL1XH-west | 2026-09-06 00:31:57 | 58.19682 | 7.57306 | 113° | 42km/h | 23327m | 4.2m/s | -51.3°C | 0.9% | 34.4hPa | 2.5V | 18:12:15 | 01:52:47 | 00:00:00 | |
| DL1XH1-15 | 2026-09-06 00:31:49 | 58.19733 | 7.57053 | 97° | 47km/h | 23260m | 6.2m/s | -51.6°C | 3.9% | 34.8hPa | 2.6V | 08:30:00 | 01:52:34 | 00:00:00 | |
| DL1XH-west | 2026-09-06 00:31:47 | 58.19725 | 7.57120 | 108° | 46km/h | 23275m | 6.1m/s | -51.5°C | 0.9% | 34.7hPa | 2.5V | 18:12:15 | 01:52:37 | 00:00:00 | |
| DL1XH1-15 | 2026-09-06 00:31:38 | 58.19745 | 7.56853 | 107° | 40km/h | 23207m | 4.5m/s | -51.6°C | 3.9% | 35hPa | 2.5V | 08:30:00 | 01:52:24 | 00:00:00 | |
| DL1XH-west | 2026-09-06 00:31:36 | 58.19740 | 7.56888 | 102° | 37km/h | 23218m | 4.9m/s | -51.6°C | 0.9% | 35hPa | 2.5V | 18:12:15 | 01:52:26 | 00:00:00 | |
| DL1XH-west | 2026-09-06 00:31:24 | 58.19767 | 7.56695 | 103° | 27km/h | 23155m | 4.7m/s | -51.9°C | 0.9% | 35.3hPa | 2.5V | 18:12:15 | 01:52:14 | 00:00:00 | |
| DL1XH1-15 | 2026-09-06 00:31:18 | 58.19786 | 7.56551 | 78° | 24km/h | 23100m | 5.7m/s | -51.9°C | 4% | 35.6hPa | 2.6V | 08:30:00 | 01:52:04 | 00:00:00 | |
| DL1XH-west | 2026-09-06 00:31:13 | 58.19784 | 7.56540 | 72° | 20km/h | 23095m | 4.1m/s | -51.9°C | 0.9% | 35.6hPa | 2.5V | 18:12:15 | 01:52:03 | 00:00:00 | |
| DL1XH1-15 | 2026-09-06 00:31:07 | 58.19793 | 7.56451 | 103° | 27km/h | 23047m | 4.5m/s | -52.5°C | 4.2% | 35.9hPa | 2.6V | 08:30:00 | 01:51:54 | 00:00:00 | |
| DL1XH-west | 2026-09-06 00:31:03 | 58.19794 | 7.56437 | 94° | 29km/h | 23043m | 4m/s | -52.5°C | 1.1% | 35.9hPa | 2.6V | 18:12:15 | 01:51:53 | 00:00:00 | |
| DL1XH1-15 | 2026-09-06 00:30:58 | 58.19780 | 7.56372 | 91° | 7km/h | 22994m | 4.8m/s | -52.2°C | 4.2% | 36.2hPa | 2.5V | 08:30:00 | 01:51:44 | 00:00:00 | |
| DL1XH-west | 2026-09-06 00:30:53 | 58.19781 | 7.56367 | 102° | 13km/h | 22988m | 6m/s | -52.1°C | 1.1% | 36.2hPa | 2.6V | 18:12:15 | 01:51:43 | 00:00:00 | |
| DL1XH1-15 | 2026-09-06 00:30:48 | 58.19776 | 7.56298 | 73° | 7km/h | 22939m | 5.2m/s | -51.8°C | 4.1% | 36.5hPa | 2.5V | 08:30:00 | 01:51:34 | 00:00:00 | |
| DL1XH-west | 2026-09-06 00:30:43 | 58.19776 | 7.56295 | 73° | 5km/h | 22934m | 5.6m/s | -51.8°C | 1% | 36.6hPa | 2.5V | 18:12:15 | 01:51:33 | 00:00:00 | |
| DL1XH1-15 | 2026-09-06 00:30:38 | 58.19787 | 7.56254 | 106° | 18km/h | 22883m | 5.4m/s | -51.6°C | 4.1% | 36.8hPa | 2.5V | 08:30:00 | 01:51:24 | 00:00:00 | |
| DL1XH-west | 2026-09-06 00:30:33 | 58.19788 | 7.56246 | 98° | 16km/h | 22878m | 4.8m/s | -51.6°C | 1% | 36.8hPa | 2.5V | 18:12:15 | 01:51:23 | 00:00:00 | |
| DL1XH-west | 2026-09-06 00:30:22 | 58.19801 | 7.56202 | 139° | 16km/h | 22815m | 6.6m/s | -51.1°C | 0.9% | 37.2hPa | 2.5V | 18:12:15 | 01:51:12 | 00:00:00 | |
| DL1XH-west | 2026-09-06 00:30:11 | 58.19835 | 7.56162 | 208° | 13km/h | 22752m | 4.9m/s | -50.6°C | 0.9% | 37.6hPa | 2.6V | 18:12:15 | 01:51:01 | 00:00:00 | |
| DL1XH-west | 2026-09-06 00:29:59 | 58.19887 | 7.56137 | 193° | 16km/h | 22683m | 5m/s | -50°C | 0.9% | 38hPa | 2.5V | 18:12:15 | 01:50:49 | 00:00:00 | |
| DL1XH-west | 2026-09-06 00:29:44 | 58.19966 | 7.56108 | 184° | 24km/h | 22597m | 6.8m/s | -49.2°C | 0.8% | 38.5hPa | 2.6V | 18:12:15 | 01:50:34 | 00:00:00 | |
| DL1XH-west | 2026-09-06 00:29:33 | 58.20033 | 7.56085 | 159° | 22km/h | 22535m | 6.4m/s | -48.7°C | 0.6% | 38.8hPa | 2.6V | 18:12:15 | 01:50:23 | 00:00:00 | |
| DL1XH-west | 2026-09-06 00:29:21 | 58.20102 | 7.56044 | 154° | 26km/h | 22470m | 4.5m/s | -48.2°C | 0.5% | 39.2hPa | 2.6V | 18:12:15 | 01:50:11 | 00:00:00 | |
| DL1XH-west | 2026-09-06 00:28:26 | 58.20433 | 7.55247 | 111° | 57km/h | 22176m | 6.1m/s | -51.1°C | 0.9% | 41.1hPa | 2.5V | 18:12:15 | 01:49:16 | 00:00:00 | |
| DL1XH-west | 2026-09-06 00:28:12 | 58.20476 | 7.54896 | 105° | 51km/h | 22107m | 5.5m/s | -51.1°C | 0.8% | 41.5hPa | 2.6V | 18:12:15 | 01:49:02 | 00:00:00 | |
| DL1XH-west | 2026-09-06 00:27:57 | 58.20493 | 7.54539 | 97° | 47km/h | 22036m | 4.4m/s | -51.4°C | 0.9% | 42hPa | 2.5V | 18:12:15 | 01:48:47 | 00:00:00 | |
| DL1XH-west | 2026-09-06 00:27:47 | 58.20508 | 7.54298 | 89° | 55km/h | 21991m | 3.7m/s | -51.6°C | 0.9% | 42.3hPa | 2.5V | 18:12:15 | 01:48:37 | 00:00:00 | |
| DL1XH-west | 2026-09-06 00:27:36 | 58.20543 | 7.54045 | 106° | 42km/h | 21938m | 4.4m/s | -51.9°C | 0.9% | 42.6hPa | 2.6V | 18:12:15 | 01:48:26 | 00:00:00 | |
| DL1XH1-15 | 2026-09-06 00:27:33 | 58.20554 | 7.53962 | 103° | 51km/h | 21921m | 3.8m/s | -52.2°C | 4% | 42.7hPa | 2.6V | 08:30:00 | 01:48:22 | 00:00:00 | |
| DL1XH-west | 2026-09-06 00:27:26 | 58.20566 | 7.53818 | 100° | 49km/h | 21892m | 3.8m/s | -52.4°C | 0.9% | 42.9hPa | 2.6V | 18:12:15 | 01:48:16 | 00:00:00 | |
| DL1XH1-15 | 2026-09-06 00:27:23 | 58.20574 | 7.53736 | 102° | 42km/h | 21872m | 4.8m/s | -52.4°C | 4.1% | 43hPa | 2.5V | 08:30:00 | 01:48:12 | 00:00:00 | |
| DL1XH1-15 | 2026-09-06 00:27:18 | 58.20587 | 7.53527 | 94° | 42km/h | 21824m | 4.5m/s | -52.7°C | 4.1% | 43.4hPa | 2.6V | 08:30:00 | 01:48:02 | 00:00:00 | |
| DL1XH-west | 2026-09-06 00:27:16 | 58.20583 | 7.53614 | 97° | 47km/h | 21842m | 4.5m/s | -52.5°C | 1% | 43.2hPa | 2.5V | 18:12:15 | 01:48:06 | 00:00:00 | |
| DL1XH1-15 | 2026-09-06 00:27:07 | 58.20597 | 7.53324 | 91° | 46km/h | 21773m | 3.6m/s | -53°C | 4.2% | 43.7hPa | 2.6V | 08:30:00 | 01:47:52 | 00:00:00 | |
| DL1XH-west | 2026-09-06 00:27:04 | 58.20595 | 7.53368 | 96° | 46km/h | 21784m | 5m/s | -53°C | 1% | 43.6hPa | 2.5V | 18:12:15 | 01:47:54 | 00:00:00 | |
| DL1XH-west | 2026-09-06 00:26:53 | 58.20609 | 7.53149 | 107° | 42km/h | 21729m | 4.1m/s | -53.1°C | 1.2% | 44hPa | 2.5V | 18:12:15 | 01:47:43 | 00:00:00 | |
| DL1XH-west | 2026-09-06 00:26:37 | 58.20660 | 7.52855 | 106° | 46km/h | 21644m | 4.6m/s | -53°C | 1.1% | 44.6hPa | 2.6V | 18:12:15 | 01:47:27 | 00:00:00 | |
| DL1XH-west | 2026-09-06 00:26:27 | 58.20684 | 7.52660 | 100° | 40km/h | 21591m | 5.6m/s | -52.7°C | 1.1% | 45hPa | 2.5V | 18:12:15 | 01:47:17 | 00:00:00 | |
| DL1XH-west | 2026-09-06 00:25:47 | 58.20685 | 7.51854 | 76° | 46km/h | 21363m | 7.1m/s | -51.7°C | 1% | 46.6hPa | 2.5V | 18:12:15 | 01:46:37 | 00:00:00 | |
| DL1XH-west | 2026-09-06 00:25:33 | 58.20625 | 7.51453 | 72° | 44km/h | 21259m | 6.6m/s | -51.8°C | 1% | 47.3hPa | 2.5V | 18:12:15 | 01:46:19 | 00:00:00 | |
| DL1XH1-15 | 2026-09-06 00:25:32 | 58.20621 | 7.51433 | 72° | 42km/h | 21253m | 5.2m/s | -51.8°C | 4.1% | 47.4hPa | 2.5V | 08:30:00 | 01:46:18 | 00:00:00 | |
| DL1XH-west | 2026-09-06 00:25:18 | 58.20589 | 7.51267 | 58° | 37km/h | 21197m | 6.2m/s | -51.7°C | 0.9% | 47.8hPa | 2.5V | 18:12:15 | 01:46:08 | 00:00:00 | |
| DL1XH1-15 | 2026-09-06 00:25:18 | 58.20584 | 7.51252 | 61° | 37km/h | 21191m | 6m/s | -51.6°C | 4% | 47.8hPa | 2.5V | 08:30:00 | 01:46:07 | 00:00:00 | |
| DL1XH1-15 | 2026-09-06 00:25:13 | 58.20543 | 7.51089 | 67° | 33km/h | 21137m | 4.7m/s | -51.4°C | 4% | 48.2hPa | 2.6V | 08:30:00 | 01:45:57 | 00:00:00 | |
| DL1XH-west | 2026-09-06 00:25:07 | 58.20542 | 7.51089 | 67° | 33km/h | 21137m | 4.7m/s | -51.4°C | 0.9% | 48.2hPa | 2.6V | 18:12:15 | 01:45:57 | 00:00:00 | |
| DL1XH1-15 | 2026-09-06 00:25:01 | 58.20506 | 7.50920 | 64° | 37km/h | 21076m | 6.1m/s | -51°C | 4% | 48.7hPa | 2.6V | 08:30:00 | 01:45:46 | 00:00:00 | |
| DL1XH-west | 2026-09-06 00:24:56 | 58.20505 | 7.50920 | 65° | 37km/h | 21076m | 6.1m/s | -51°C | 0.9% | 48.7hPa | 2.6V | 18:12:15 | 01:45:46 | 00:00:00 | |
| DL1XH-west | 2026-09-06 00:24:44 | 58.20456 | 7.50756 | 53° | 35km/h | 21016m | 4.3m/s | -50.7°C | 0.9% | 49.1hPa | 2.6V | 18:12:15 | 01:45:34 | 00:00:00 | |
| DL1XH-west | 2026-09-06 00:24:31 | 58.20420 | 7.50594 | 60° | 27km/h | 20948m | 4.9m/s | -50.6°C | 0.9% | 49.7hPa | 2.6V | 18:12:15 | 01:45:21 | 00:00:00 | |
| DL1XH-west | 2026-09-06 00:23:21 | 58.20394 | 7.49806 | 115° | 46km/h | 20574m | 5.6m/s | -50.6°C | 0.9% | 52.6hPa | 2.5V | 18:12:15 | 01:44:11 | 00:00:00 | |
| DL1XH-west | 2026-09-06 00:23:09 | 58.20435 | 7.49574 | 115° | 49km/h | 20513m | 5.6m/s | -50.4°C | 0.8% | 53.1hPa | 2.5V | 18:12:15 | 01:43:59 | 00:00:00 | |
| DL1XH-west | 2026-09-06 00:22:59 | 58.20478 | 7.49354 | 107° | 42km/h | 20462m | 4.2m/s | -50.3°C | 0.8% | 53.5hPa | 2.5V | 18:12:15 | 01:43:49 | 00:00:00 | |
| DL1XH1-15 | 2026-09-06 00:22:52 | 58.20513 | 7.49165 | 109° | 57km/h | 20421m | 5m/s | -50.1°C | 3.7% | 53.8hPa | 2.5V | 08:30:00 | 01:43:41 | 00:00:00 | |
| DL1XH-west | 2026-09-06 00:22:48 | 58.20525 | 7.49098 | 107° | 46km/h | 20407m | 4.7m/s | -50.3°C | 0.8% | 54hPa | 2.6V | 18:12:15 | 01:43:38 | 00:00:00 | |
| DL1XH-west | 2026-09-06 00:22:37 | 58.20546 | 7.48847 | 100° | 55km/h | 20350m | 5.2m/s | -50.4°C | 0.7% | 54.4hPa | 2.6V | 18:12:15 | 01:43:27 | 00:00:00 | |
| DL1XH1-15 | 2026-09-06 00:22:32 | 58.20550 | 7.48665 | 87° | 46km/h | 20311m | 3.9m/s | -50.5°C | 3.6% | 54.8hPa | 2.6V | 08:30:00 | 01:43:19 | 00:00:00 | |
| DL1XH-west | 2026-09-06 00:22:26 | 58.20552 | 7.48599 | 101° | 49km/h | 20297m | 4.4m/s | -50.7°C | 0.7% | 54.9hPa | 2.5V | 18:12:15 | 01:43:16 | 00:00:00 | |
| DL1XH1-15 | 2026-09-06 00:22:21 | 58.20576 | 7.48428 | 99° | 38km/h | 20256m | 3.5m/s | -51.2°C | 3.8% | 55.2hPa | 2.6V | 08:30:00 | 01:43:08 | 00:00:00 | |
| DL1XH-west | 2026-09-06 00:22:15 | 58.20583 | 7.48373 | 110° | 42km/h | 20242m | 4.4m/s | -51.4°C | 0.9% | 55.3hPa | 2.5V | 18:12:15 | 01:43:05 | 00:00:00 | |
| DL1XH-west | 2026-09-06 00:22:04 | 58.20618 | 7.48162 | 113° | 40km/h | 20188m | 4.4m/s | -52.1°C | 1% | 55.8hPa | 2.5V | 18:12:15 | 01:42:54 | 00:00:00 | |
| DL1XH-west | 2026-09-06 00:21:53 | 58.20655 | 7.47932 | 108° | 53km/h | 20136m | 4.8m/s | -52.5°C | 0.9% | 56.3hPa | 2.6V | 18:12:15 | 01:42:43 | 00:00:00 | |
| DJ2DS-15 | 2026-09-06 00:21:53 | 58.20660 | 7.47907 | 111° | 57km/h | 20132m | 3.4m/s | -52.7°C | 1.3% | 56.3hPa | 2.5V | 00:00:00 | 00:00:00 | 00:00:00 | |
| DL1XH-west | 2026-09-06 00:21:03 | 58.20809 | 7.46798 | 97° | 46km/h | 19897m | 5.2m/s | -51.7°C | 1% | 58.4hPa | 2.5V | 18:12:15 | 01:41:53 | 00:00:00 | |
| DL1XH-west | 2026-09-06 00:20:37 | 58.20831 | 7.46223 | 92° | 42km/h | 19767m | 4.3m/s | -51°C | 0.9% | 59.6hPa | 2.5V | 18:12:15 | 01:41:27 | 00:00:00 | |
| DL1XH-west | 2026-09-06 00:19:58 | 58.20817 | 7.45461 | 73° | 29km/h | 19576m | 4.5m/s | -50.6°C | 0.9% | 61.4hPa | 2.5V | 18:12:15 | 01:40:48 | 00:00:00 | |
| DL1XH-west | 2026-09-06 00:19:45 | 58.20800 | 7.45272 | 67° | 29km/h | 19515m | 5.2m/s | -50.3°C | 0.8% | 61.9hPa | 2.5V | 18:12:15 | 01:40:35 | 00:00:00 | |
| DJ2DS-15 | 2026-09-06 00:19:28 | 58.20780 | 7.45063 | 81° | 20km/h | 19437m | 4.6m/s | -49.8°C | 1.2% | 62.7hPa | 2.5V | 00:00:00 | 00:00:00 | 00:00:00 | |
| DL1XH-west | 2026-09-06 00:18:59 | 58.20768 | 7.44766 | 81° | 22km/h | 19298m | 4m/s | -49.4°C | 0.7% | 64hPa | 2.5V | 18:12:15 | 01:39:49 | 00:00:00 | |
| DL1XH-west | 2026-09-06 00:18:48 | 58.20754 | 7.44625 | 80° | 24km/h | 19248m | 4m/s | -49.5°C | 0.7% | 64.5hPa | 2.5V | 18:12:15 | 01:39:38 | 00:00:00 | |
| DL1XH-west | 2026-09-06 00:18:38 | 58.20751 | 7.44491 | 81° | 31km/h | 19202m | 5m/s | -49.5°C | 0.6% | 65hPa | 2.5V | 18:12:15 | 01:39:28 | 00:00:00 | |
| DL1XH-west | 2026-09-06 00:18:27 | 58.20761 | 7.44338 | 102° | 37km/h | 19148m | 5.8m/s | -49.9°C | 0.7% | 65.5hPa | 2.5V | 18:12:15 | 01:39:17 | 00:00:00 | |
| DL1XH-west | 2026-09-06 00:18:17 | 58.20779 | 7.44209 | 107° | 31km/h | 19101m | 5.1m/s | -49.9°C | 0.6% | 66hPa | 2.6V | 18:12:15 | 01:39:07 | 00:00:00 | |
| DL1XH-west | 2026-09-06 00:18:06 | 58.20797 | 7.44042 | 108° | 27km/h | 19049m | 5.3m/s | -50.3°C | 0.8% | 66.5hPa | 2.5V | 18:12:15 | 01:38:56 | 00:00:00 | |
| DL1XH-west | 2026-09-06 00:17:56 | 58.20817 | 7.43888 | 92° | 31km/h | 19002m | 4.6m/s | -50°C | 0.7% | 67hPa | 2.6V | 18:12:15 | 01:38:46 | 00:00:00 | |
| DL1XH1-15 | 2026-09-06 00:17:55 | 58.20819 | 7.43858 | 101° | 33km/h | 18992m | 3.9m/s | -50°C | 3.8% | 67.1hPa | 2.5V | 08:30:00 | 01:38:44 | 00:00:00 | |
| DL1XH1-15 | 2026-09-06 00:17:48 | 58.20829 | 7.43687 | 90° | 26km/h | 18941m | 5.1m/s | -49.9°C | 3.7% | 67.6hPa | 2.6V | 08:30:00 | 01:38:33 | 00:00:00 | |
| DL1XH-west | 2026-09-06 00:17:46 | 58.20828 | 7.43729 | 99° | 31km/h | 18956m | 4.9m/s | -49.9°C | 0.8% | 67.5hPa | 2.5V | 18:12:15 | 01:38:36 | 00:00:00 | |
| DL1XH-west | 2026-09-06 00:17:35 | 58.20828 | 7.43579 | 83° | 35km/h | 18903m | 5.4m/s | -50°C | 0.8% | 68hPa | 2.5V | 18:12:15 | 01:38:25 | 00:00:00 | |
| DL1XH-west | 2026-09-06 00:17:25 | 58.20823 | 7.43427 | 93° | 37km/h | 18857m | 5.2m/s | -49.8°C | 0.8% | 68.5hPa | 2.5V | 18:12:15 | 01:38:15 | 00:00:00 | |
| DJ2DS-15 | 2026-09-06 00:17:04 | 58.20856 | 7.43116 | 107° | 29km/h | 18756m | 5.1m/s | -49.3°C | 1.2% | 69.6hPa | 2.5V | 00:00:00 | 00:00:00 | 00:00:00 | |
| DL1XH-west | 2026-09-06 00:16:40 | 58.20959 | 7.42704 | 120° | 40km/h | 18645m | 4.4m/s | -50°C | 0.8% | 70.7hPa | 2.5V | 18:12:15 | 01:37:30 | 00:00:00 | |
| DL1XH-west | 2026-09-06 00:16:21 | 58.21078 | 7.42346 | 130° | 44km/h | 18562m | 4.6m/s | -50.2°C | 0.8% | 71.7hPa | 2.5V | 18:12:15 | 01:37:11 | 00:00:00 | |
| DL1XH-west | 2026-09-06 00:16:08 | 58.21152 | 7.42089 | 126° | 42km/h | 18503m | 5.4m/s | -50°C | 0.8% | 72.3hPa | 2.5V | 18:12:15 | 01:36:58 | 00:00:00 | |
| DL1XH-west | 2026-09-06 00:15:37 | 58.21301 | 7.41500 | 122° | 40km/h | 18361m | 4.4m/s | -50.4°C | 0.8% | 73.9hPa | 2.6V | 18:12:15 | 01:36:26 | 00:00:00 | |
| DL1XH-west | 2026-09-06 00:15:25 | 58.21356 | 7.41295 | 114° | 49km/h | 18308m | 5.6m/s | -50.1°C | 0.9% | 74.5hPa | 2.5V | 18:12:15 | 01:36:15 | 00:00:00 | |
| DL1XH-west | 2026-09-06 00:15:14 | 58.21404 | 7.41059 | 127° | 47km/h | 18254m | 4m/s | -50°C | 0.6% | 75.1hPa | 2.5V | 18:12:15 | 01:36:04 | 00:00:00 | |
| DL1XH1-15 | 2026-09-06 00:15:04 | 58.21478 | 7.40665 | 110° | 62km/h | 18177m | 4.6m/s | -50.9°C | 3.9% | 76hPa | 2.5V | 08:30:00 | 01:35:49 | 00:00:00 | |
| DL1XH-west | 2026-09-06 00:15:00 | 58.21472 | 7.40693 | 111° | 64km/h | 18182m | 4.1m/s | -50.9°C | 0.8% | 0hPa | 2.5V | 18:12:15 | 01:35:50 | 00:00:00 | |
| DL1XH-west | 2026-09-06 00:14:49 | 58.21510 | 7.40368 | 94° | 66km/h | 18134m | 3.9m/s | -50.8°C | 0.9% | 0hPa | 2.6V | 18:12:15 | 01:35:39 | 00:00:00 | |
| DL1XH-west | 2026-09-06 00:14:39 | 58.21528 | 7.40071 | 98° | 64km/h | 18088m | 4.6m/s | -50.5°C | 0.8% | 0hPa | 2.5V | 18:12:15 | 01:35:29 | 00:00:00 | |
| DL1XH-west | 2026-09-06 00:14:29 | 58.21537 | 7.39780 | 98° | 58km/h | 18044m | 4.4m/s | -50.2°C | 0% | 0hPa | 2.6V | 18:12:15 | 01:35:19 | 00:00:00 | |
| DL1XH1-15 | 2026-09-06 00:14:24 | 58.21555 | 7.39506 | 94° | 60km/h | 17997m | 5.4m/s | -50°C | 3.7% | 78.2hPa | 2.5V | 08:30:00 | 01:35:09 | 00:00:00 | |
| DL1XH-west | 2026-09-06 00:14:19 | 58.21555 | 7.39506 | 94° | 60km/h | 17997m | 5.4m/s | 0°C | 0% | 0hPa | 2.5V | 18:12:15 | 01:35:09 | 00:00:00 | |
| DL1XH1-15 | 2026-09-06 00:14:13 | 58.21566 | 7.39204 | 94° | 66km/h | 17952m | 3.5m/s | -50.1°C | 3.7% | 78.7hPa | 2.6V | 08:30:00 | 01:34:59 | 00:00:00 | |
| DL1XH1-15 | 2026-09-06 00:14:03 | 58.21568 | 7.38911 | 93° | 58km/h | 17906m | 4.3m/s | -50.1°C | 3.8% | 79.3hPa | 2.5V | 08:30:00 | 01:34:49 | 00:00:00 | |
| DL1XH1-15 | 2026-09-06 00:13:53 | 58.21571 | 7.38605 | 88° | 64km/h | 17860m | 4.3m/s | -50°C | 3.7% | 79.8hPa | 2.6V | 08:30:00 | 01:34:39 | 00:00:00 | |
| DL1XH1-15 | 2026-09-06 00:13:43 | 58.21561 | 7.38289 | 87° | 73km/h | 17815m | 4m/s | -49.7°C | 3.6% | 80.4hPa | 2.5V | 08:30:00 | 01:34:29 | 00:00:00 | |
| DL1XH1-15 | 2026-09-06 00:13:33 | 58.21544 | 7.37964 | 80° | 66km/h | 17769m | 4.8m/s | -49.7°C | 3.5% | 80.9hPa | 2.6V | 08:30:00 | 01:34:19 | 00:00:00 | |
| DJ2DS-15 | 2026-09-06 00:13:27 | 58.21537 | 7.37771 | 88° | 68km/h | 17742m | 4.3m/s | -50.3°C | 1.3% | 81.3hPa | 2.5V | 00:00:00 | 00:00:00 | 00:00:00 | |
| DL1XH1-15 | 2026-09-06 00:13:25 | 58.21535 | 7.37644 | 86° | 66km/h | 17722m | 5.2m/s | -50.4°C | 3.8% | 0hPa | 2.5V | 08:30:00 | 01:34:09 | 00:00:00 | |
| DL1XH1-15 | 2026-09-06 00:13:13 | 58.21533 | 7.37350 | 97° | 58km/h | 17676m | 4.7m/s | -50.2°C | 3.7% | 0hPa | 2.6V | 08:30:00 | 01:33:59 | 00:00:00 | |
| DL1XH1-15 | 2026-09-06 00:13:03 | 58.21540 | 7.37090 | 99° | 51km/h | 17629m | 3.8m/s | -50.4°C | 0% | 0hPa | 2.5V | 08:30:00 | 01:33:49 | 00:00:00 | |
| DL1XH1-15 | 2026-09-06 00:12:54 | 58.21562 | 7.36830 | 100° | 55km/h | 17584m | 4m/s | -50.3°C | 0% | 0hPa | 2.6V | 08:30:00 | 01:33:39 | 00:00:00 | |
| DL1XH1-15 | 2026-09-06 00:12:43 | 58.21585 | 7.36555 | 99° | 57km/h | 17539m | 3.9m/s | 0°C | 0% | 0hPa | 2.5V | 00:00:00 | 01:33:29 | 00:00:00 | |
| DL1XH1-15 | 2026-09-06 00:12:33 | 58.21620 | 7.36308 | 105° | 49km/h | 17494m | 3.7m/s | 0°C | 0% | 0hPa | 2.6V | 00:00:00 | 01:33:19 | 00:00:00 | |
| DL1XH1-15 | 2026-09-06 00:12:06 | 58.21690 | 7.35693 | 104° | 58km/h | 17389m | 3.5m/s | 0°C | 0% | 0hPa | 2.5V | 00:00:00 | 01:32:55 | 00:00:00 |